M I D A S
Marine Information and Data Acquisition System
Tripno 868 of the Zeeleeuw from 2005-03-22 08:14:00 to 2005-03-22 13:26:49
Back to CruiseResearch ActivitiesStationsMapUnderway DataData graphs

EquipmentUnitsComment
TimeDGPSUTC
LatitudeDGPSDM.mWGS84
LongitudeDGPSDM.mWGS84
TemperatureSBE03/SBE38deg celciusITS90
ConductivitySBE21S/mITS90
SalinitySBE21 Practical Salinity Units
ChlorophylAChelsea fluorimeterg/lCalibrated in Aceton
Missing or incorrect values are displayed as -999
Sea surface data collected by the RV Zeeleeuw from 2005-03-22 08:12:02 to 2005-03-22 13:35:43
                                                                                    Next 1000 lines
Time Latitude Longitude Temperature Conductivity Salinity ChlorophylA
2005-03-22 08:12:11 51°13.595 2°56.097 -999 4.631848 30.746835 -0.882377
2005-03-22 08:12:17 51°13.596 2°56.094 -999 4.631637 30.744809 -0.848668
2005-03-22 08:12:22 51°13.597 2°56.09 -999 4.631637 30.744809 -0.882377
2005-03-22 08:12:27 51°13.599 2°56.085 -999 4.631532 30.744026 -0.882377
2005-03-22 08:12:33 51°13.6 2°56.08 -999 4.631532 30.744026 -0.882377
2005-03-22 08:12:37 51°13.602 2°56.075 -999 4.631532 30.744487 -0.882377
2005-03-22 08:12:43 51°13.604 2°56.069 -999 4.631532 30.744487 -0.848668
2005-03-22 08:12:47 51°13.605 2°56.064 -999 4.631426 30.743704 -0.882377
2005-03-22 08:12:53 51°13.607 2°56.057 -999 4.631532 30.744487 -0.848668
2005-03-22 08:12:57 51°13.609 2°56.052 -999 4.631532 30.744487 -0.882377
2005-03-22 08:13:03 51°13.611 2°56.043 -999 4.631426 30.744164 -0.848668
2005-03-22 08:13:08 51°13.613 2°56.037 -999 4.631426 30.744164 -0.848668
2005-03-22 08:13:13 51°13.615 2°56.03 -999 4.631321 30.744302 -0.882377
2005-03-22 08:13:18 51°13.617 2°56.022 -999 4.565927 30.41859 -0.612702
2005-03-22 08:13:23 51°13.62 2°56.015 -999 4.52869 29.940594 -0.646411
2005-03-22 08:13:28 51°13.622 2°56.006 -999 3.902914 25.64788 2.522272
2005-03-22 08:13:33 51°13.624 2°55.999 -999 4.160299 30.395399 3.129042
2005-03-22 08:13:37 51°13.626 2°55.993 -999 4.160299 30.395399 3.129042
2005-03-22 08:13:43 51°13.63 2°55.983 -999 3.794985 30.255568 3.263879
2005-03-22 08:13:48 51°13.633 2°55.975 -999 3.191271 26.734079 4.140324
2005-03-22 08:13:53 51°13.635 2°55.967 -999 2.978098 25.989301 6.162888
2005-03-22 08:13:58 51°13.639 2°55.959 -999 2.852127 25.562195 6.904494
2005-03-22 08:14:03 51°13.642 2°55.951 -999 2.852127 25.562195 6.904494
2005-03-22 08:14:08 51°13.646 2°55.942 -999 2.792785 25.489802 6.904494
2005-03-22 08:14:13 51°13.648 2°55.935 -999 2.75775 25.401867 6.769657
2005-03-22 08:14:17 51°13.652 2°55.928 -999 2.722927 25.27378 6.668529
2005-03-22 08:14:23 51°13.656 2°55.918 -999 2.711883 25.327176 6.5674
2005-03-22 08:14:28 51°13.659 2°55.911 -999 2.690527 25.213128 6.499982
2005-03-22 08:14:33 51°13.662 2°55.903 -999 2.693369 25.334702 6.365144
2005-03-22 08:14:37 51°13.665 2°55.896 -999 2.693369 25.334702 6.365144
2005-03-22 08:14:43 51°13.669 2°55.886 -999 2.643296 24.886125 6.297725
2005-03-22 08:14:47 51°13.672 2°55.879 -999 2.691267 25.445823 6.196597
2005-03-22 08:14:53 51°13.675 2°55.869 -999 2.693897 25.523832 6.230306
2005-03-22 08:14:57 51°13.677 2°55.863 -999 2.682746 25.45395 6.196597
2005-03-22 08:15:03 51°13.681 2°55.852 -999 2.696108 25.63953 6.297725
2005-03-22 08:15:08 51°13.684 2°55.844 -999 2.696108 25.63953 6.297725
2005-03-22 08:15:12 51°13.686 2°55.836 -999 2.672227 25.423914 6.264016
2005-03-22 08:15:17 51°13.688 2°55.826 -999 2.653503 25.266294 6.365144
2005-03-22 08:15:23 51°13.691 2°55.815 -999 2.699054 25.768253 6.398853
2005-03-22 08:15:28 51°13.692 2°55.807 -999 2.680013 25.600916 6.432563
2005-03-22 08:15:33 51°13.694 2°55.799 -999 2.680013 25.600916 6.432563
2005-03-22 08:15:37 51°13.695 2°55.79 -999 2.703894 25.869065 6.466272
2005-03-22 08:15:43 51°13.696 2°55.781 -999 2.70642 25.909612 6.398853
2005-03-22 08:15:48 51°13.697 2°55.772 -999 2.690534 25.770164 6.432563
2005-03-22 08:15:53 51°13.698 2°55.763 -999 2.672756 25.613117 6.533691
2005-03-22 08:15:58 51°13.699 2°55.755 -999 2.676753 25.674184 6.634819
2005-03-22 08:16:03 51°13.7 2°55.747 -999 2.676753 25.674184 6.634819
2005-03-22 08:16:07 51°13.7 2°55.74 -999 2.707262 26.009055 6.60111
2005-03-22 08:16:13 51°13.7 2°55.735 -999 2.699162 25.931745 6.735947
2005-03-22 08:16:18 51°13.701 2°55.732 -999 2.69064 25.848065 6.837076
2005-03-22 08:16:23 51°13.701 2°55.731 -999 2.682224 25.758514 6.904494
2005-03-22 08:16:28 51°13.702 2°55.732 -999 2.685485 25.799953 6.904494
2005-03-22 08:16:33 51°13.704 2°55.733 -999 2.689273 25.850167 6.904494
2005-03-22 08:16:38 51°13.706 2°55.736 -999 2.689273 25.850167 6.904494
2005-03-22 08:16:43 51°13.709 2°55.738 -999 2.68801 25.848288 6.904494
2005-03-22 08:16:47 51°13.711 2°55.74 -999 2.677806 25.752444 6.904494
2005-03-22 08:16:52 51°13.714 2°55.742 -999 2.657819 25.547443 6.904494
2005-03-22 08:16:58 51°13.717 2°55.743 -999 2.671494 25.6933 7.005623
2005-03-22 08:17:03 51°13.718 2°55.743 -999 2.671494 25.6933 7.005623
2005-03-22 08:17:08 51°13.718 2°55.743 -999 2.674966 25.736372 7.073042
2005-03-22 08:17:11 51°13.718 2°55.742 -999 2.666655 25.64782 7.005623
2005-03-22 08:17:17 51°13.717 2°55.742 -999 2.662973 25.606985 6.971913
2005-03-22 08:17:23 51°13.717 2°55.741 -999 2.631731 25.275639 6.971913
2005-03-22 08:17:28 51°13.717 2°55.741 -999 2.64488 25.411989 7.14046
2005-03-22 08:17:32 51°13.717 2°55.741 -999 2.64488 25.411989 7.14046
2005-03-22 08:17:37 51°13.718 2°55.74 -999 2.633835 25.289112 7.14046
2005-03-22 08:17:43 51°13.72 2°55.739 -999 2.363264 22.442854 7.241589
2005-03-22 08:17:48 51°13.723 2°55.737 -999 2.575038 24.658499 7.17417
2005-03-22 08:17:51 51°13.725 2°55.736 -999 2.603646 24.960261 7.17417
2005-03-22 08:17:57 51°13.73 2°55.732 -999 2.602174 24.942289 7.241589
2005-03-22 08:18:02 51°13.734 2°55.728 -999 2.602174 24.942289 7.241589
2005-03-22 08:18:07 51°13.738 2°55.724 -999 2.60291 24.95312 7.14046
2005-03-22 08:18:12 51°13.743 2°55.718 -999 2.595758 24.88454 7.073042
2005-03-22 08:18:17 51°13.749 2°55.712 -999 2.611641 25.056845 7.039332
2005-03-22 08:18:22 51°13.754 2°55.706 -999 2.612061 25.064991 7.14046
2005-03-22 08:18:27 51°13.76 2°55.699 -999 2.614691 25.095201 7.106751
2005-03-22 08:18:32 51°13.766 2°55.693 -999 2.607223 25.020148 7.039332
2005-03-22 08:18:37 51°13.773 2°55.686 -999 2.607223 25.020148 7.039332
2005-03-22 08:18:42 51°13.781 2°55.677 -999 2.61143 25.06514 7.039332
2005-03-22 08:18:47 51°13.788 2°55.67 -999 2.60249 24.968391 7.039332
2005-03-22 08:18:51 51°13.795 2°55.664 -999 2.609432 25.045916 7.005623
2005-03-22 08:18:56 51°13.803 2°55.656 -999 2.586292 24.796477 7.005623
2005-03-22 08:19:02 51°13.813 2°55.647 -999 2.586292 24.796477 7.005623
2005-03-22 08:19:07 51°13.821 2°55.64 -999 2.582926 24.748203 6.904494
2005-03-22 08:19:12 51°13.83 2°55.633 -999 2.569148 24.580797 6.938204
2005-03-22 08:19:18 51°13.84 2°55.624 -999 2.534441 24.194335 6.870785
2005-03-22 08:19:23 51°13.85 2°55.617 -999 2.508886 23.904903 7.005623
2005-03-22 08:19:27 51°13.858 2°55.611 -999 2.511199 23.917338 6.938204
2005-03-22 08:19:32 51°13.866 2°55.605 -999 2.511199 23.917338 6.938204
2005-03-22 08:19:37 51°13.877 2°55.596 -999 2.510253 23.904507 7.039332
2005-03-22 08:19:42 51°13.886 2°55.59 -999 2.516458 23.972901 7.005623
2005-03-22 08:19:47 51°13.896 2°55.583 -999 2.501735 23.823691 6.971913
2005-03-22 08:19:52 51°13.906 2°55.575 -999 2.534862 24.180295 6.971913
2005-03-22 08:19:57 51°13.916 2°55.568 -999 2.526659 24.105073 6.904494
2005-03-22 08:20:03 51°13.927 2°55.56 -999 2.561365 24.480929 6.971913
2005-03-22 08:20:07 51°13.936 2°55.554 -999 2.561365 24.480929 6.971913
2005-03-22 08:20:11 51°13.944 2°55.548 -999 2.566834 24.555272 6.803366
2005-03-22 08:20:17 51°13.955 2°55.54 -999 2.596915 24.88752 6.769657
2005-03-22 08:20:22 51°13.965 2°55.533 -999 2.608801 25.026286 6.60111
2005-03-22 08:20:27 51°13.977 2°55.525 -999 2.624263 25.206141 6.533691
2005-03-22 08:20:32 51°13.987 2°55.517 -999 2.624263 25.206141 6.533691
2005-03-22 08:20:37 51°13.996 2°55.511 -999 2.642251 25.407412 6.398853
2005-03-22 08:20:41 51°14.004 2°55.505 -999 2.643723 25.433662 6.297725
2005-03-22 08:20:47 51°14.017 2°55.495 -999 2.661396 25.629525 6.297725
2005-03-22 08:20:52 51°14.026 2°55.489 -999 2.64446 25.454661 6.196597
2005-03-22 08:20:57 51°14.037 2°55.482 -999 2.6473 25.484719 6.095469
2005-03-22 08:21:03 51°14.049 2°55.473 -999 2.6473 25.484719 6.095469
2005-03-22 08:21:07 51°14.058 2°55.467 -999 2.667708 25.702729 5.994341
2005-03-22 08:21:13 51°14.069 2°55.458 -999 2.657609 25.594489 5.926922
2005-03-22 08:21:18 51°14.079 2°55.451 -999 2.653927 25.548554 5.893212
2005-03-22 08:21:22 51°14.088 2°55.444 -999 2.639621 25.386512 5.758375
2005-03-22 08:21:27 51°14.098 2°55.436 -999 2.645301 25.444691 5.792084
2005-03-22 08:21:32 51°14.108 2°55.427 -999 2.645301 25.444691 5.792084
2005-03-22 08:21:37 51°14.118 2°55.419 -999 2.63657 25.35113 5.657247
2005-03-22 08:21:42 51°14.127 2°55.41 -999 2.614481 25.113435 5.623537
2005-03-22 08:21:47 51°14.137 2°55.401 -999 2.63899 25.37169 5.589828
2005-03-22 08:21:52 51°14.145 2°55.392 -999 2.638884 25.371205 5.589828
2005-03-22 08:21:57 51°14.154 2°55.383 -999 2.629733 25.270133 5.589828
2005-03-22 08:22:03 51°14.165 2°55.371 -999 2.618899 25.153242 5.522409
2005-03-22 08:22:08 51°14.174 2°55.36 -999 2.618899 25.153242 5.522409
2005-03-22 08:22:11 51°14.18 2°55.353 -999 2.597651 24.92785 5.4887
2005-03-22 08:22:17 51°14.19 2°55.339 -999 2.617216 25.131133 5.522409
2005-03-22 08:22:22 51°14.198 2°55.328 -999 2.611325 25.068362 5.522409
2005-03-22 08:22:27 51°14.207 2°55.316 -999 2.621107 25.170966 5.387571
2005-03-22 08:22:31 51°14.214 2°55.306 -999 2.621107 25.170966 5.387571
2005-03-22 08:22:37 51°14.225 2°55.288 -999 2.620161 25.162838 5.353862
2005-03-22 08:22:42 51°14.234 2°55.274 -999 2.621002 25.176693 5.320153
2005-03-22 08:22:47 51°14.242 2°55.26 -999 2.621528 25.183489 5.286443
2005-03-22 08:22:52 51°14.25 2°55.248 -999 2.619214 25.159058 5.219024
2005-03-22 08:22:57 51°14.258 2°55.234 -999 2.616059 25.126988 5.084187
2005-03-22 08:23:02 51°14.267 2°55.219 -999 2.616059 25.126988 5.084187
2005-03-22 08:23:07 51°14.274 2°55.205 -999 2.623527 25.207704 5.084187
2005-03-22 08:23:12 51°14.28 2°55.192 -999 2.605435 25.020438 5.050477
2005-03-22 08:23:17 51°14.288 2°55.177 -999 2.628366 25.266298 5.050477
2005-03-22 08:23:22 51°14.295 2°55.164 -999 2.634046 25.336342 5.084187
2005-03-22 08:23:27 51°14.302 2°55.15 -999 2.644881 25.460373 5.050477
2005-03-22 08:23:31 51°14.307 2°55.139 -999 2.655084 25.577876 4.949349
2005-03-22 08:23:36 51°14.314 2°55.126 -999 2.655084 25.577876 4.949349
2005-03-22 08:23:41 51°14.32 2°55.114 -999 2.646774 25.50375 5.084187
2005-03-22 08:23:47 51°14.329 2°55.096 -999 2.662238 25.682255 4.88193
2005-03-22 08:23:52 51°14.336 2°55.083 -999 2.672863 25.809699 4.88193
2005-03-22 08:23:57 51°14.343 2°55.068 -999 2.699164 26.101476 4.983059
2005-03-22 08:24:03 51°14.353 2°55.05 -999 2.699164 26.101476 4.983059
2005-03-22 08:24:07 51°14.361 2°55.036 -999 2.70232 26.155165 4.88193
2005-03-22 08:24:12 51°14.369 2°55.023 -999 2.723467 26.406027 4.848221
2005-03-22 08:24:17 51°14.38 2°55.006 -999 2.737565 26.575659 4.713383
2005-03-22 08:24:23 51°14.391 2°54.99 -999 2.745772 26.676635 4.578546
2005-03-22 08:24:27 51°14.401 2°54.976 -999 2.751769 26.746108 4.612255
2005-03-22 08:24:31 51°14.409 2°54.963 -999 2.751769 26.746108 4.612255
2005-03-22 08:24:37 51°14.422 2°54.945 -999 2.75703 26.799738 4.578546
2005-03-22 08:24:41 51°14.432 2°54.93 -999 2.745036 26.670086 4.578546
2005-03-22 08:24:48 51°14.445 2°54.906 -999 2.710211 26.290763 4.477418
2005-03-22 08:24:51 51°14.452 2°54.893 -999 2.739249 26.600263 4.477418
2005-03-22 08:24:56 51°14.462 2°54.872 -999 2.749875 26.71853 4.511127
2005-03-22 08:25:03 51°14.473 2°54.844 -999 2.749875 26.71853 4.511127
2005-03-22 08:25:07 51°14.48 2°54.824 -999 2.765553 26.901007 4.34258
2005-03-22 08:25:13 51°14.487 2°54.799 -999 2.762081 26.890604 4.275161
2005-03-22 08:25:17 51°14.491 2°54.78 -999 2.795857 27.282878 4.207742
2005-03-22 08:25:22 51°14.496 2°54.753 -999 2.832372 27.700601 4.039195
2005-03-22 08:25:27 51°14.5 2°54.727 -999 2.856155 28.000451 3.938067
2005-03-22 08:25:33 51°14.504 2°54.699 -999 2.880571 28.299882 3.80323
2005-03-22 08:25:37 51°14.506 2°54.674 -999 2.880571 28.299882 3.80323
2005-03-22 08:25:42 51°14.508 2°54.648 -999 2.888149 28.401919 3.836939
2005-03-22 08:25:47 51°14.509 2°54.62 -999 2.911303 28.679065 3.80323
2005-03-22 08:25:53 51°14.51 2°54.589 -999 2.908567 28.671648 3.668392
2005-03-22 08:25:57 51°14.511 2°54.564 -999 2.923197 28.845287 3.634683
2005-03-22 08:26:03 51°14.511 2°54.534 -999 2.926355 28.889837 3.634683
2005-03-22 08:26:07 51°14.51 2°54.508 -999 2.926355 28.889837 3.634683
2005-03-22 08:26:11 51°14.509 2°54.486 -999 2.895727 28.55934 3.533554
2005-03-22 08:26:17 51°14.506 2°54.452 -999 2.935091 28.985745 3.499845
2005-03-22 08:26:23 51°14.504 2°54.422 -999 2.943722 29.087137 3.499845
2005-03-22 08:26:27 51°14.501 2°54.397 -999 2.948879 29.149255 3.466136
2005-03-22 08:26:32 51°14.497 2°54.372 -999 2.948879 29.149255 3.466136
2005-03-22 08:26:38 51°14.492 2°54.339 -999 2.952037 29.191055 3.331298
2005-03-22 08:26:42 51°14.489 2°54.317 -999 2.952142 29.19882 3.365007
2005-03-22 08:26:47 51°14.484 2°54.29 -999 2.95109 29.196888 3.331298
2005-03-22 08:26:53 51°14.477 2°54.258 -999 2.945406 29.1385 3.331298
2005-03-22 08:26:57 51°14.472 2°54.237 -999 2.950353 29.205029 3.365007
2005-03-22 08:27:02 51°14.465 2°54.208 -999 2.950248 29.20756 3.331298
2005-03-22 08:27:07 51°14.459 2°54.182 -999 2.950248 29.20756 3.331298
2005-03-22 08:27:12 51°14.453 2°54.156 -999 2.954563 29.260622 3.19646
2005-03-22 08:27:17 51°14.446 2°54.129 -999 2.949195 29.207104 3.19646
2005-03-22 08:27:22 51°14.439 2°54.104 -999 2.946248 29.174892 3.23017
2005-03-22 08:27:27 51°14.432 2°54.078 -999 2.943406 29.146041 3.23017
2005-03-22 08:27:33 51°14.422 2°54.051 -999 2.955616 29.292811 3.162751
2005-03-22 08:27:37 51°14.415 2°54.032 -999 2.955616 29.292811 3.162751
2005-03-22 08:27:42 51°14.405 2°54.006 -999 2.949933 29.239494 3.162751
2005-03-22 08:27:47 51°14.395 2°53.983 -999 2.956985 29.32184 3.129042
2005-03-22 08:27:52 51°14.386 2°53.959 -999 2.958353 29.342005 3.027913
2005-03-22 08:27:57 51°14.376 2°53.935 -999 2.964353 29.412901 3.061623
2005-03-22 08:28:02 51°14.367 2°53.912 -999 2.964037 29.412414 3.061623
2005-03-22 08:28:07 51°14.358 2°53.888 -999 2.964037 29.412414 3.061623
2005-03-22 08:28:13 51°14.347 2°53.862 -999 2.95509 29.313686 2.960494
2005-03-22 08:28:17 51°14.34 2°53.843 -999 2.956669 29.333938 2.994204
2005-03-22 08:28:22 51°14.329 2°53.817 -999 2.963721 29.413413 2.926785
2005-03-22 08:28:27 51°14.32 2°53.793 -999 2.955932 29.33328 2.960494
2005-03-22 08:28:32 51°14.31 2°53.769 -999 2.955932 29.33328 2.960494
2005-03-22 08:28:37 51°14.301 2°53.745 -999 2.968774 29.475478 3.061623
2005-03-22 08:28:43 51°14.291 2°53.719 -999 2.963932 29.425385 2.960494
2005-03-22 08:28:47 51°14.282 2°53.698 -999 2.966037 29.45367 2.893076
2005-03-22 08:28:52 51°14.274 2°53.675 -999 2.964669 29.442391 2.926785
2005-03-22 08:28:57 51°14.265 2°53.652 -999 2.96688 29.472588 2.926785
2005-03-22 08:29:03 51°14.254 2°53.623 -999 2.962353 29.422956 2.893076
2005-03-22 08:29:07 51°14.246 2°53.601 -999 2.962353 29.422956 2.893076
2005-03-22 08:29:12 51°14.238 2°53.579 -999 2.954564 29.342763 2.893076
2005-03-22 08:29:17 51°14.227 2°53.553 -999 2.955722 29.359169 2.859366
2005-03-22 08:29:22 51°14.218 2°53.529 -999 2.96888 29.502729 2.859366
2005-03-22 08:29:27 51°14.209 2°53.505 -999 2.961196 29.419933 2.859366
2005-03-22 08:29:33 51°14.199 2°53.479 -999 2.964774 29.457696 2.893076
2005-03-22 08:29:37 51°14.192 2°53.459 -999 2.964774 29.457696 2.893076
2005-03-22 08:29:42 51°14.181 2°53.433 -999 2.966038 29.476771 2.893076
2005-03-22 08:29:47 51°14.172 2°53.409 -999 2.965406 29.476555 2.926785
2005-03-22 08:29:52 51°14.164 2°53.387 -999 2.964669 29.473691 2.859366
2005-03-22 08:29:57 51°14.155 2°53.363 -999 2.966985 29.501348 2.825657
2005-03-22 08:30:03 51°14.144 2°53.334 -999 2.966985 29.501348 2.825657
2005-03-22 08:30:07 51°14.137 2°53.312 -999 2.964459 29.480336 2.791947
2005-03-22 08:30:13 51°14.127 2°53.285 -999 2.946355 29.284632 2.825657
2005-03-22 08:30:17 51°14.119 2°53.263 -999 2.964038 29.488407 2.859366
2005-03-22 08:30:22 51°14.109 2°53.239 -999 2.966985 29.526763 2.825657
2005-03-22 08:30:27 51°14.1 2°53.215 -999 2.961933 29.477983 2.893076
2005-03-22 08:30:33 51°14.09 2°53.189 -999 2.968459 29.554188 2.859366
2005-03-22 08:30:37 51°14.083 2°53.169 -999 2.968459 29.554188 2.859366
2005-03-22 08:30:43 51°14.072 2°53.141 -999 2.955723 29.414237 2.791947
2005-03-22 08:30:47 51°14.063 2°53.119 -999 2.946881 29.321592 2.724529
2005-03-22 08:30:51 51°14.056 2°53.1 -999 2.97067 29.586737 2.960494
2005-03-22 08:30:57 51°14.046 2°53.073 -999 2.961407 29.487148 2.791947
2005-03-22 08:31:02 51°14.036 2°53.047 -999 2.961723 29.491367 2.791947
2005-03-22 08:31:07 51°14.027 2°53.023 -999 2.961723 29.491367 2.791947
2005-03-22 08:31:13 51°14.017 2°52.996 -999 2.947513 29.338197 2.893076
2005-03-22 08:31:17 51°14.008 2°52.974 -999 2.959933 29.476183 2.758238
2005-03-22 08:31:22 51°13.999 2°52.95 -999 2.96688 29.555565 2.825657
2005-03-22 08:31:27 51°13.99 2°52.926 -999 2.951513 29.385124 2.859366
2005-03-22 08:31:32 51°13.982 2°52.904 -999 2.972354 29.616522 2.791947
2005-03-22 08:31:37 51°13.973 2°52.88 -999 2.972354 29.616522 2.791947
2005-03-22 08:31:42 51°13.962 2°52.853 -999 2.964249 29.529622 2.825657
2005-03-22 08:31:47 51°13.953 2°52.829 -999 2.962881 29.51682 2.825657
2005-03-22 08:31:51 51°13.946 2°52.809 -999 2.962775 29.517161 2.859366
2005-03-22 08:31:56 51°13.937 2°52.785 -999 2.969723 29.595833 2.825657
2005-03-22 08:32:01 51°13.928 2°52.763 -999 2.969723 29.595833 2.825657
2005-03-22 08:32:07 51°13.917 2°52.732 -999 2.962144 29.513959 2.825657
2005-03-22 08:32:13 51°13.907 2°52.705 -999 2.965302 29.550195 2.791947
2005-03-22 08:32:17 51°13.9 2°52.685 -999 2.946461 29.346731 2.791947
2005-03-22 08:32:23 51°13.889 2°52.656 -999 2.958881 29.48705 2.859366
2005-03-22 08:32:27 51°13.881 2°52.634 -999 2.933199 29.203211 2.724529
2005-03-22 08:32:33 51°13.871 2°52.607 -999 2.941935 29.301444 2.893076
2005-03-22 08:32:38 51°13.861 2°52.583 -999 2.941935 29.301444 2.893076
2005-03-22 08:32:43 51°13.852 2°52.559 -999 2.966986 29.577732 2.825657
2005-03-22 08:32:47 51°13.844 2°52.537 -999 2.943514 29.321033 2.825657
2005-03-22 08:32:51 51°13.837 2°52.517 -999 2.955618 29.4534 2.791947
2005-03-22 08:32:56 51°13.828 2°52.493 -999 2.952566 29.421319 2.791947
2005-03-22 08:33:02 51°13.817 2°52.464 -999 2.960249 29.506598 2.825657
2005-03-22 08:33:07 51°13.808 2°52.439 -999 2.960249 29.506598 2.825657
2005-03-22 08:33:11 51°13.801 2°52.42 -999 2.962986 29.540464 2.758238
2005-03-22 08:33:17 51°13.791 2°52.393 -999 2.95446 29.445149 2.859366
2005-03-22 08:33:22 51°13.782 2°52.369 -999 2.967723 29.592603 2.893076
2005-03-22 08:33:27 51°13.772 2°52.342 -999 2.958881 29.496036 2.859366
2005-03-22 08:33:33 51°13.762 2°52.315 -999 2.958881 29.496036 2.859366
2005-03-22 08:33:37 51°13.753 2°52.293 -999 2.956776 29.475865 2.859366
2005-03-22 08:33:41 51°13.747 2°52.277 -999 2.952776 29.433349 2.859366
2005-03-22 08:33:47 51°13.735 2°52.245 -999 2.964881 29.568076 2.893076
2005-03-22 08:33:52 51°13.727 2°52.223 -999 2.955618 29.465369 2.893076
2005-03-22 08:33:57 51°13.717 2°52.196 -999 2.960144 29.514433 2.893076
2005-03-22 08:34:02 51°13.708 2°52.172 -999 2.960144 29.514433 2.893076
2005-03-22 08:34:07 51°13.699 2°52.147 -999 2.960671 29.518726 2.859366
2005-03-22 08:34:12 51°13.691 2°52.125 -999 2.95004 29.399506 2.859366
2005-03-22 08:34:17 51°13.681 2°52.098 -999 2.966986 29.582989 2.859366
2005-03-22 08:34:22 51°13.672 2°52.074 -999 2.967091 29.587153 2.926785
2005-03-22 08:34:27 51°13.663 2°52.05 -999 2.964881 29.567325 2.926785
2005-03-22 08:34:33 51°13.653 2°52.023 -999 2.965618 29.576188 2.859366
2005-03-22 08:34:37 51°13.646 2°52.004 -999 2.965618 29.576188 2.859366
2005-03-22 08:34:42 51°13.635 2°51.977 -999 2.960144 29.516682 2.960494
2005-03-22 08:34:47 51°13.627 2°51.952 -999 2.948987 29.39614 2.926785
2005-03-22 08:34:52 51°13.618 2°51.931 -999 2.953303 29.445122 2.893076
2005-03-22 08:34:57 51°13.609 2°51.903 -999 2.965302 29.57797 2.893076
2005-03-22 08:35:02 51°13.6 2°51.879 -999 2.965302 29.57797 2.893076
2005-03-22 08:35:07 51°13.591 2°51.855 -999 2.963513 29.562021 2.960494
2005-03-22 08:35:12 51°13.583 2°51.833 -999 2.964776 29.57518 2.893076
2005-03-22 08:35:18 51°13.572 2°51.804 -999 2.948145 29.389862 2.960494
2005-03-22 08:35:23 51°13.563 2°51.78 -999 2.954881 29.464744 2.994204
2005-03-22 08:35:27 51°13.554 2°51.758 -999 2.964039 29.564061 2.893076
2005-03-22 08:35:31 51°13.548 2°51.738 -999 2.964039 29.564061 2.893076
2005-03-22 08:35:38 51°13.536 2°51.707 -999 2.960671 29.526975 2.893076
2005-03-22 08:35:43 51°13.526 2°51.682 -999 2.965197 29.57606 2.893076
2005-03-22 08:35:47 51°13.519 2°51.663 -999 2.937199 29.268703 2.859366
2005-03-22 08:35:51 51°13.512 2°51.643 -999 2.956987 29.484921 2.859366
2005-03-22 08:35:57 51°13.5 2°51.611 -999 2.965618 29.579944 2.859366
2005-03-22 08:36:03 51°13.49 2°51.586 -999 2.962039 29.538288 2.859366
2005-03-22 08:36:07 51°13.482 2°51.563 -999 2.962039 29.538288 2.859366
2005-03-22 08:36:13 51°13.472 2°51.537 -999 2.96646 29.586211 2.926785
2005-03-22 08:36:18 51°13.463 2°51.512 -999 2.960986 29.523701 2.859366
2005-03-22 08:36:22 51°13.455 2°51.491 -999 2.962565 29.53658 2.859366
2005-03-22 08:36:27 51°13.446 2°51.466 -999 2.965723 29.568335 2.893076
2005-03-22 08:36:32 51°13.437 2°51.442 -999 2.966881 29.579577 2.893076
2005-03-22 08:36:37 51°13.428 2°51.417 -999 2.966881 29.579577 2.893076
2005-03-22 08:36:42 51°13.419 2°51.393 -999 2.938988 29.273509 2.893076
2005-03-22 08:36:47 51°13.41 2°51.369 -999 2.964354 29.548022 2.825657
2005-03-22 08:36:53 51°13.4 2°51.343 -999 2.959513 29.490255 2.791947
2005-03-22 08:36:57 51°13.393 2°51.323 -999 2.965302 29.554695 2.859366
2005-03-22 08:37:01 51°13.385 2°51.301 -999 2.965302 29.554695 2.859366
2005-03-22 08:37:07 51°13.374 2°51.272 -999 2.971091 29.61615 2.791947
2005-03-22 08:37:13 51°13.365 2°51.245 -999 2.969617 29.59843 2.859366
2005-03-22 08:37:18 51°13.356 2°51.22 -999 2.969512 29.594268 2.825657
2005-03-22 08:37:22 51°13.348 2°51.198 -999 2.97067 29.604003 2.893076
2005-03-22 08:37:27 51°13.339 2°51.174 -999 2.971617 29.609918 2.859366
2005-03-22 08:37:32 51°13.33 2°51.15 -999 2.971617 29.609918 2.859366
2005-03-22 08:37:37 51°13.322 2°51.129 -999 2.962144 29.49824 2.859366
2005-03-22 08:37:42 51°13.312 2°51.102 -999 2.966459 29.542691 2.859366
2005-03-22 08:37:47 51°13.303 2°51.078 -999 2.969407 29.575098 2.758238
2005-03-22 08:37:52 51°13.295 2°51.056 -999 2.971091 29.592867 2.724529
2005-03-22 08:37:57 51°13.285 2°51.029 -999 2.963196 29.503077 2.758238
2005-03-22 08:38:03 51°13.275 2°51.003 -999 2.96488 29.517847 2.690819
2005-03-22 08:38:07 51°13.267 2°50.981 -999 2.96488 29.517847 2.690819
2005-03-22 08:38:12 51°13.258 2°50.957 -999 2.972143 29.593936 2.724529
2005-03-22 08:38:17 51°13.249 2°50.932 -999 2.968775 29.552415 2.825657
2005-03-22 08:38:23 51°13.239 2°50.906 -999 2.963512 29.490098 2.825657
2005-03-22 08:38:27 51°13.231 2°50.884 -999 2.970669 29.564247 2.758238
2005-03-22 08:38:33 51°13.221 2°50.858 -999 2.970669 29.564247 2.758238
2005-03-22 08:38:37 51°13.213 2°50.835 -999 2.969617 29.550435 2.859366
2005-03-22 08:38:43 51°13.203 2°50.809 -999 2.969722 29.548597 2.926785
2005-03-22 08:38:47 51°13.195 2°50.787 -999 2.96488 29.492426 2.758238
2005-03-22 08:38:52 51°13.186 2°50.763 -999 2.949091 29.31911 2.825657
2005-03-22 08:38:57 51°13.178 2°50.741 -999 2.955407 29.386931 2.825657
2005-03-22 08:39:01 51°13.171 2°50.722 -999 2.955407 29.386931 2.825657
2005-03-22 08:39:07 51°13.159 2°50.69 -999 2.963301 29.472849 2.791947
2005-03-22 08:39:13 51°13.149 2°50.664 -999 2.936461 29.179077 2.758238
2005-03-22 08:39:17 51°13.142 2°50.645 -999 2.97109 29.55764 2.926785
2005-03-22 08:39:23 51°13.131 2°50.616 -999 2.940987 29.225752 2.825657
2005-03-22 08:39:27 51°13.123 2°50.594 -999 2.948881 29.309376 2.825657
2005-03-22 08:39:33 51°13.113 2°50.568 -999 2.956354 29.39063 2.859366
2005-03-22 08:39:38 51°13.104 2°50.543 -999 2.956354 29.39063 2.859366
2005-03-22 08:39:43 51°13.095 2°50.519 -999 2.966669 29.502363 2.758238
2005-03-22 08:39:47 51°13.088 2°50.497 -999 2.947513 29.292883 2.825657
2005-03-22 08:39:52 51°13.079 2°50.476 -999 2.950354 29.32183 2.724529
2005-03-22 08:39:57 51°13.071 2°50.451 -999 2.970038 29.536354 2.724529
2005-03-22 08:40:02 51°13.061 2°50.425 -999 2.964459 29.472873 2.758238
2005-03-22 08:40:07 51°13.052 2°50.4 -999 2.964459 29.472873 2.758238
2005-03-22 08:40:12 51°13.044 2°50.378 -999 2.961933 29.444402 2.791947
2005-03-22 08:40:17 51°13.035 2°50.354 -999 2.966038 29.487963 2.825657
2005-03-22 08:40:23 51°13.024 2°50.326 -999 2.956143 29.378649 2.825657
2005-03-22 08:40:28 51°13.015 2°50.301 -999 2.945618 29.26247 2.825657
2005-03-22 08:40:31 51°13.009 2°50.285 -999 2.976458 29.600868 2.65711
2005-03-22 08:40:36 51°13 2°50.26 -999 2.976458 29.600868 2.65711
2005-03-22 08:40:43 51°12.988 2°50.229 -999 2.947091 29.275664 2.690819
2005-03-22 08:40:47 51°12.98 2°50.207 -999 2.965932 29.483076 2.724529
2005-03-22 08:40:51 51°12.974 2°50.191 -999 2.956564 29.37732 2.791947
2005-03-22 08:40:57 51°12.963 2°50.162 -999 2.982458 29.661504 2.724529
2005-03-22 08:41:02 51°12.953 2°50.135 -999 2.982458 29.661504 2.724529
2005-03-22 08:41:07 51°12.944 2°50.111 -999 2.988879 29.729773 2.690819
2005-03-22 08:41:13 51°12.935 2°50.084 -999 2.983827 29.672778 2.690819
2005-03-22 08:41:17 51°12.926 2°50.062 -999 2.970669 29.528338 2.758238
2005-03-22 08:41:23 51°12.916 2°50.036 -999 2.969511 29.514138 2.724529
2005-03-22 08:41:27 51°12.908 2°50.014 -999 2.995195 29.793881 2.724529
2005-03-22 08:41:33 51°12.898 2°49.988 -999 2.991511 29.749647 2.791947
2005-03-22 08:41:37 51°12.891 2°49.969 -999 2.991511 29.749647 2.791947
2005-03-22 08:41:43 51°12.88 2°49.94 -999 2.995511 29.792828 2.758238
2005-03-22 08:41:47 51°12.872 2°49.918 -999 2.990774 29.736289 2.859366
2005-03-22 08:41:52 51°12.864 2°49.896 -999 3.006353 29.905901 2.724529
2005-03-22 08:41:58 51°12.853 2°49.867 -999 2.995195 29.778813 2.758238
2005-03-22 08:42:02 51°12.845 2°49.845 -999 2.997406 29.800825 2.724529
2005-03-22 08:42:07 51°12.836 2°49.821 -999 2.997406 29.800825 2.724529
2005-03-22 08:42:13 51°12.826 2°49.795 -999 2.994248 29.763142 2.724529
2005-03-22 08:42:17 51°12.819 2°49.776 -999 3.004564 29.873395 2.724529
2005-03-22 08:42:23 51°12.808 2°49.747 -999 3.005932 29.886157 2.690819
2005-03-22 08:42:27 51°12.8 2°49.725 -999 2.982458 29.628514 2.724529
2005-03-22 08:42:33 51°12.791 2°49.699 -999 2.982458 29.628514 2.724529
2005-03-22 08:42:37 51°12.784 2°49.679 -999 2.997721 29.794499 2.690819
2005-03-22 08:42:42 51°12.774 2°49.653 -999 2.9893 29.700578 2.6234
2005-03-22 08:42:47 51°12.765 2°49.629 -999 2.999826 29.81535 2.65711
2005-03-22 08:42:52 51°12.756 2°49.605 -999 3.005827 29.880469 2.6234
2005-03-22 08:42:57 51°12.747 2°49.581 -999 3.007511 29.896697 2.589691
2005-03-22 08:43:02 51°12.74 2°49.56 -999 3.007511 29.896697 2.589691
2005-03-22 08:43:08 51°12.729 2°49.531 -999 2.998668 29.797367 2.65711
2005-03-22 08:43:11 51°12.723 2°49.514 -999 3.004353 29.860515 2.6234
2005-03-22 08:43:18 51°12.711 2°49.483 -999 3.002353 29.837805 2.6234
2005-03-22 08:43:22 51°12.703 2°49.462 -999 3.002669 29.841271 2.690819
2005-03-22 08:43:27 51°12.694 2°49.438 -999 2.999826 29.810076 2.724529
2005-03-22 08:43:33 51°12.684 2°49.412 -999 2.999616 29.807765 2.724529
2005-03-22 08:43:37 51°12.676 2°49.39 -999 2.999616 29.807765 2.724529
2005-03-22 08:43:43 51°12.666 2°49.364 -999 3.000563 29.817409 2.825657
2005-03-22 08:43:47 51°12.658 2°49.343 -999 3.003932 29.855138 2.791947
2005-03-22 08:43:53 51°12.649 2°49.316 -999 2.999932 29.807465 2.791947
2005-03-22 08:43:58 51°12.64 2°49.292 -999 2.998353 29.789385 2.859366
2005-03-22 08:44:03 51°12.631 2°49.268 -999 3.004669 29.8587 2.893076
2005-03-22 08:44:07 51°12.624 2°49.249 -999 3.004669 29.8587 2.893076
2005-03-22 08:44:11 51°12.617 2°49.23 -999 3.005721 29.873273 2.893076
2005-03-22 08:44:17 51°12.606 2°49.201 -999 3.005616 29.870608 2.994204
2005-03-22 08:44:23 51°12.596 2°49.172 -999 3.006248 29.875277 3.027913
2005-03-22 08:44:27 51°12.589 2°49.153 -999 3.002353 29.831774 2.994204
2005-03-22 08:44:31 51°12.582 2°49.133 -999 3.002353 29.831774 2.994204
2005-03-22 08:44:37 51°12.571 2°49.105 -999 3.008563 29.898433 2.994204
2005-03-22 08:44:43 51°12.561 2°49.075 -999 3.005405 29.86377 2.994204
2005-03-22 08:44:47 51°12.553 2°49.054 -999 3.008142 29.893811 3.061623
2005-03-22 08:44:52 51°12.544 2°49.03 -999 3.010774 29.9227 3.027913
2005-03-22 08:44:57 51°12.536 2°49.008 -999 3.002774 29.836395 3.061623
2005-03-22 08:45:02 51°12.526 2°48.982 -999 3.003721 29.848301 3.027913
2005-03-22 08:45:07 51°12.517 2°48.958 -999 3.003721 29.848301 3.027913
2005-03-22 08:45:13 51°12.507 2°48.932 -999 3.006353 29.877942 3.095332
2005-03-22 08:45:18 51°12.498 2°48.908 -999 3.010669 29.926081 3.23017
2005-03-22 08:45:22 51°12.491 2°48.889 -999 3.001511 29.827808 3.095332
2005-03-22 08:45:27 51°12.482 2°48.866 -999 3.010143 29.924082 3.129042
2005-03-22 08:45:33 51°12.471 2°48.837 -999 3.011511 29.939867 3.19646
2005-03-22 08:45:37 51°12.463 2°48.815 -999 3.011511 29.939867 3.19646
2005-03-22 08:45:43 51°12.453 2°48.789 -999 3.00909 29.915547 3.19646
2005-03-22 08:45:48 51°12.445 2°48.764 -999 3.010879 29.9352 3.19646
2005-03-22 08:45:53 51°12.436 2°48.741 -999 2.985721 29.659064 3.129042
2005-03-22 08:45:57 51°12.428 2°48.719 -999 3.010774 29.934044 3.095332
2005-03-22 08:46:02 51°12.419 2°48.695 -999 3.014774 29.978738 3.061623
2005-03-22 08:46:07 51°12.41 2°48.671 -999 3.014774 29.978738 3.061623
2005-03-22 08:46:13 51°12.4 2°48.645 -999 3.010669 29.933644 3.095332
2005-03-22 08:46:17 51°12.393 2°48.626 -999 2.988353 29.687182 2.960494
2005-03-22 08:46:22 51°12.383 2°48.6 -999 3.02088 30.047335 3.061623
2005-03-22 08:46:27 51°12.374 2°48.576 -999 3.004248 29.866152 2.960494
2005-03-22 08:46:32 51°12.366 2°48.554 -999 3.004248 29.866152 2.960494
2005-03-22 08:46:38 51°12.356 2°48.525 -999 2.997826 29.796408 2.960494
2005-03-22 08:46:43 51°12.347 2°48.501 -999 3.019512 30.033057 2.926785
2005-03-22 08:46:47 51°12.339 2°48.479 -999 3.020038 30.037322 2.926785
2005-03-22 08:46:53 51°12.33 2°48.453 -999 3.016564 29.999155 2.859366
2005-03-22 08:46:57 51°12.323 2°48.434 -999 3.015511 29.985316 3.027913
2005-03-22 08:47:03 51°12.312 2°48.405 -999 3.003932 29.852875 2.960494
2005-03-22 08:47:07 51°12.304 2°48.383 -999 3.003932 29.852875 2.960494
2005-03-22 08:47:13 51°12.295 2°48.357 -999 3.02288 30.058678 2.893076
2005-03-22 08:47:17 51°12.288 2°48.338 -999 3.021511 30.042126 2.893076
2005-03-22 08:47:23 51°12.277 2°48.309 -999 3.011721 29.933858 3.061623
2005-03-22 08:47:27 51°12.269 2°48.287 -999 3.02288 30.0564 2.994204
2005-03-22 08:47:31 51°12.262 2°48.268 -999 3.018459 30.005563 2.926785
2005-03-22 08:47:36 51°12.254 2°48.246 -999 3.018459 30.005563 2.926785
2005-03-22 08:47:42 51°12.243 2°48.215 -999 3.020775 30.028721 3.027913
2005-03-22 08:47:48 51°12.233 2°48.189 -999 3.023196 30.053795 2.994204
2005-03-22 08:47:53 51°12.224 2°48.165 -999 2.993616 29.729152 2.994204
2005-03-22 08:47:57 51°12.216 2°48.143 -999 3.020353 30.021822 2.926785
2005-03-22 08:48:02 51°12.207 2°48.12 -999 3.020353 30.021822 2.926785
2005-03-22 08:48:07 51°12.199 2°48.096 -999 3.029091 30.116267 2.994204
2005-03-22 08:48:13 51°12.189 2°48.07 -999 3.028249 30.107776 2.960494
2005-03-22 08:48:17 51°12.182 2°48.051 -999 3.026564 30.087755 2.960494
2005-03-22 08:48:22 51°12.172 2°48.025 -999 3.032565 30.15367 2.960494
2005-03-22 08:48:27 51°12.163 2°48.002 -999 3.033302 30.162528 2.926785
2005-03-22 08:48:33 51°12.153 2°47.975 -999 3.036039 30.191078 3.027913
2005-03-22 08:48:37 51°12.145 2°47.953 -999 3.036039 30.191078 3.027913
2005-03-22 08:48:43 51°12.135 2°47.928 -999 3.038355 30.215002 2.960494
2005-03-22 08:48:47 51°12.128 2°47.909 -999 3.03088 30.132883 3.061623
2005-03-22 08:48:51 51°12.12 2°47.887 -999 3.034986 30.177987 3.061623
2005-03-22 08:48:57 51°12.11 2°47.861 -999 3.032144 30.145998 3.095332
2005-03-22 08:49:02 51°12.101 2°47.835 -999 3.035828 30.184953 3.027913
2005-03-22 08:49:07 51°12.092 2°47.811 -999 3.035828 30.184953 3.027913
2005-03-22 08:49:12 51°12.084 2°47.79 -999 3.040987 30.241633 3.129042
2005-03-22 08:49:17 51°12.075 2°47.766 -999 3.02888 30.110912 3.162751
2005-03-22 08:49:23 51°12.064 2°47.738 -999 3.033302 30.159481 3.095332
2005-03-22 08:49:27 51°12.056 2°47.716 -999 3.044987 30.287894 3.095332
2005-03-22 08:49:31 51°12.049 2°47.697 -999 3.034986 30.179511 3.061623
2005-03-22 08:49:37 51°12.039 2°47.671 -999 3.034986 30.179511 3.061623
2005-03-22 08:49:43 51°12.028 2°47.643 -999 3.036039 30.189553 3.061623
2005-03-22 08:49:47 51°12.02 2°47.621 -999 3.017932 29.989934 2.994204
2005-03-22 08:49:51 51°12.013 2°47.602 -999 3.038144 30.212688 3.061623
2005-03-22 08:49:57 51°12.003 2°47.576 -999 3.045934 30.298309 3.061623
2005-03-22 08:50:02 51°11.994 2°47.55 -999 3.045934 30.298309 3.061623
2005-03-22 08:50:07 51°11.985 2°47.526 -999 3.040671 30.242745 3.129042
2005-03-22 08:50:13 51°11.975 2°47.5 -999 3.040039 30.236566 3.061623
2005-03-22 08:50:17 51°11.967 2°47.478 -999 3.018669 30.001812 3.061623
2005-03-22 08:50:23 51°11.957 2°47.453 -999 3.018564 29.999898 3.027913
2005-03-22 08:50:27 51°11.949 2°47.432 -999 3.030459 30.13054 2.960494
2005-03-22 08:50:32 51°11.941 2°47.41 -999 3.031407 30.140187 3.095332
2005-03-22 08:50:38 51°11.931 2°47.382 -999 3.031407 30.140187 3.095332
2005-03-22 08:50:42 51°11.923 2°47.36 -999 3.030144 30.125549 3.061623
2005-03-22 08:50:47 51°11.918 2°47.338 -999 3.046987 30.309882 3.061623
2005-03-22 08:50:51 51°11.912 2°47.315 -999 3.047724 30.316452 3.129042
2005-03-22 08:50:57 51°11.905 2°47.283 -999 3.046882 30.306428 3.129042
2005-03-22 08:51:01 51°11.901 2°47.266 -999 3.054251 30.385147 3.095332
2005-03-22 08:51:07 51°11.895 2°47.231 -999 3.054251 30.385147 3.095332
2005-03-22 08:51:13 51°11.889 2°47.202 -999 3.050988 30.345434 3.027913
2005-03-22 08:51:17 51°11.886 2°47.181 -999 3.055199 30.388659 3.129042
2005-03-22 08:51:22 51°11.879 2°47.153 -999 3.046566 30.295306 3.061623
2005-03-22 08:51:27 51°11.873 2°47.127 -999 3.050988 30.343902 2.994204
2005-03-22 08:51:32 51°11.867 2°47.104 -999 3.050988 30.343902 2.994204
2005-03-22 08:51:37 51°11.861 2°47.078 -999 3.060357 30.446144 2.994204
2005-03-22 08:51:43 51°11.853 2°47.048 -999 3.053304 30.370127 3.095332
2005-03-22 08:51:47 51°11.847 2°47.025 -999 3.052988 30.368956 3.027913
2005-03-22 08:51:52 51°11.841 2°47.002 -999 3.054672 30.392847 2.994204
2005-03-22 08:51:57 51°11.834 2°46.973 -999 3.056883 30.41716 2.994204
2005-03-22 08:52:03 51°11.826 2°46.946 -999 3.060778 30.461542 2.994204
2005-03-22 08:52:07 51°11.82 2°46.923 -999 3.060778 30.461542 2.994204
2005-03-22 08:52:13 51°11.813 2°46.895 -999 3.062568 30.482001 2.926785
2005-03-22 08:52:18 51°11.806 2°46.87 -999 3.05962 30.45188 2.994204
2005-03-22 08:52:23 51°11.799 2°46.844 -999 3.043197 30.270516 2.994204
2005-03-22 08:52:27 51°11.793 2°46.824 -999 3.062042 30.474671 2.960494
2005-03-22 08:52:33 51°11.786 2°46.794 -999 3.055936 30.405204 2.960494
2005-03-22 08:52:38 51°11.779 2°46.768 -999 3.055936 30.405204 2.960494
2005-03-22 08:52:42 51°11.773 2°46.748 -999 3.056673 30.414076 2.960494
2005-03-22 08:52:47 51°11.766 2°46.722 -999 3.057725 30.425654 2.893076
2005-03-22 08:52:53 51°11.758 2°46.692 -999 3.060568 30.45538 2.859366
2005-03-22 08:52:57 51°11.751 2°46.669 -999 3.062252 30.47083 2.926785
2005-03-22 08:53:03 51°11.744 2°46.642 -999 3.054251 30.381311 2.859366
2005-03-22 08:53:07 51°11.738 2°46.619 -999 3.054251 30.381311 2.859366
2005-03-22 08:53:13 51°11.73 2°46.591 -999 3.062252 30.470061 2.893076
2005-03-22 08:53:17 51°11.724 2°46.568 -999 3.035302 30.174598 2.926785
2005-03-22 08:53:22 51°11.718 2°46.543 -999 3.058567 30.42877 2.960494
2005-03-22 08:53:27 51°11.711 2°46.517 -999 3.0632 30.476634 2.893076
2005-03-22 08:53:32 51°11.705 2°46.494 -999 3.0632 30.476634 2.893076
2005-03-22 08:53:37 51°11.698 2°46.469 -999 3.060357 30.445376 2.926785
2005-03-22 08:53:43 51°11.69 2°46.439 -999 3.063937 30.485509 2.960494
2005-03-22 08:53:47 51°11.684 2°46.416 -999 3.062147 30.464287 2.893076
2005-03-22 08:53:52 51°11.677 2°46.393 -999 3.059094 30.430716 2.926785
2005-03-22 08:53:57 51°11.67 2°46.364 -999 3.062252 30.464676 2.893076
2005-03-22 08:54:03 51°11.663 2°46.337 -999 3.066674 30.514075 2.994204
2005-03-22 08:54:07 51°11.657 2°46.314 -999 3.066674 30.514075 2.994204
2005-03-22 08:54:13 51°11.649 2°46.286 -999 3.054251 30.375175 3.027913
2005-03-22 08:54:17 51°11.643 2°46.262 -999 3.054356 30.374799 2.960494
2005-03-22 08:54:20 51°11.639 2°46.248 -999 3.063831 30.475118 2.926785
2005-03-22 08:54:28 51°11.629 2°46.209 -999 3.074464 30.590514 2.994204
2005-03-22 08:54:32 51°11.624 2°46.189 -999 3.067937 30.514874 2.926785
2005-03-22 08:54:38 51°11.615 2°46.159 -999 3.067937 30.514874 2.926785
2005-03-22 08:54:43 51°11.608 2°46.134 -999 3.063831 30.46666 2.994204
2005-03-22 08:54:48 51°11.601 2°46.108 -999 3.077938 30.61946 2.926785
2005-03-22 08:54:53 51°11.594 2°46.084 -999 3.075728 30.593601 2.960494
2005-03-22 08:54:57 51°11.589 2°46.063 -999 3.070885 30.541123 3.027913
2005-03-22 08:55:03 51°11.58 2°46.033 -999 3.070885 30.541123 3.027913
2005-03-22 08:55:07 51°11.575 2°46.01 -999 3.076254 30.598618 3.027913
2005-03-22 08:55:13 51°11.568 2°45.981 -999 3.071411 30.544598 3.095332
2005-03-22 08:55:17 51°11.562 2°45.958 -999 3.069937 30.526855 2.994204
2005-03-22 08:55:23 51°11.556 2°45.93 -999 3.068042 30.504486 3.027913
2005-03-22 08:55:27 51°11.55 2°45.906 -999 3.074359 30.570838 3.061623
2005-03-22 08:55:31 51°11.545 2°45.886 -999 3.074359 30.570838 3.061623
2005-03-22 08:55:38 51°11.538 2°45.852 -999 3.080886 30.642606 2.960494
2005-03-22 08:55:43 51°11.532 2°45.826 -999 3.085203 30.689304 3.027913
2005-03-22 08:55:47 51°11.527 2°45.805 -999 3.074254 30.568139 3.095332
2005-03-22 08:55:52 51°11.521 2°45.779 -999 3.081097 30.640284 2.994204
2005-03-22 08:55:58 51°11.514 2°45.747 -999 3.082992 30.658802 3.095332
2005-03-22 08:56:02 51°11.51 2°45.726 -999 3.076149 30.585886 2.994204
2005-03-22 08:56:07 51°11.504 2°45.7 -999 3.076149 30.585886 2.994204
2005-03-22 08:56:13 51°11.497 2°45.669 -999 3.086255 30.697012 3.061623
2005-03-22 08:56:17 51°11.491 2°45.645 -999 3.080886 30.636424 3.129042
2005-03-22 08:56:23 51°11.485 2°45.617 -999 3.081307 30.640281 2.960494
2005-03-22 08:56:28 51°11.479 2°45.591 -999 3.088466 30.719004 3.027913
2005-03-22 08:56:31 51°11.475 2°45.573 -999 3.088677 30.722095 3.061623
2005-03-22 08:56:37 51°11.467 2°45.542 -999 3.088677 30.722095 3.061623
2005-03-22 08:56:43 51°11.46 2°45.511 -999 3.080044 30.627164 3.027913
2005-03-22 08:56:47 51°11.455 2°45.49 -999 3.079096 30.614432 3.095332
2005-03-22 08:56:52 51°11.449 2°45.465 -999 3.087203 30.703562 3.095332
2005-03-22 08:56:57 51°11.443 2°45.438 -999 3.090993 30.74602 2.960494
2005-03-22 08:57:02 51°11.438 2°45.416 -999 3.090993 30.74602 2.960494
2005-03-22 08:57:07 51°11.431 2°45.387 -999 3.080044 30.624075 3.061623
2005-03-22 08:57:11 51°11.426 2°45.367 -999 3.082149 30.64645 3.061623
2005-03-22 08:57:17 51°11.42 2°45.339 -999 3.094046 30.778053 3.129042
2005-03-22 08:57:22 51°11.413 2°45.31 -999 3.083518 30.663044 3.095332
2005-03-22 08:57:27 51°11.407 2°45.284 -999 3.089624 30.730192 2.960494
2005-03-22 08:57:33 51°11.4 2°45.256 -999 3.084887 30.675772 3.095332
2005-03-22 08:57:38 51°11.394 2°45.23 -999 3.084887 30.675772 3.095332
2005-03-22 08:57:41 51°11.391 2°45.215 -999 3.086466 30.693909 3.095332
2005-03-22 08:57:47 51°11.383 2°45.181 -999 3.085518 30.681944 3.027913
2005-03-22 08:57:52 51°11.377 2°45.155 -999 3.085834 30.684643 3.027913
2005-03-22 08:57:57 51°11.371 2°45.129 -999 3.069726 30.510686 3.095332
2005-03-22 08:58:03 51°11.364 2°45.101 -999 3.096678 30.806231 2.994204
2005-03-22 08:58:07 51°11.359 2°45.078 -999 3.096678 30.806231 2.994204
2005-03-22 08:58:12 51°11.353 2°45.053 -999 3.092888 30.765314 3.095332
2005-03-22 08:58:17 51°11.347 2°45.026 -999 3.087414 30.705103 3.095332
2005-03-22 08:58:20 51°11.343 2°45.011 -999 3.084045 30.667285 3.027913
2005-03-22 08:58:27 51°11.335 2°44.978 -999 3.07678 30.588201 3.162751
2005-03-22 08:58:32 51°11.329 2°44.952 -999 3.090046 30.733273 3.095332
2005-03-22 08:58:37 51°11.322 2°44.923 -999 3.090046 30.733273 3.095332
2005-03-22 08:58:43 51°11.316 2°44.895 -999 3.098574 30.82708 3.027913
2005-03-22 08:58:47 51°11.31 2°44.872 -999 3.090151 30.733656 3.095332
2005-03-22 08:58:53 51°11.303 2°44.844 -999 3.095099 30.785753 3.095332
2005-03-22 08:58:57 51°11.298 2°44.823 -999 3.090572 30.735188 3.095332
2005-03-22 08:59:02 51°11.292 2°44.797 -999 3.090572 30.735188 3.095332
2005-03-22 08:59:07 51°11.286 2°44.769 -999 3.094678 30.779569 3.162751
2005-03-22 08:59:13 51°11.279 2°44.741 -999 3.080675 30.627158 3.095332
2005-03-22 08:59:17 51°11.274 2°44.72 -999 3.094046 30.774949 3.162751
2005-03-22 08:59:23 51°11.267 2°44.689 -999 3.092046 30.753723 3.263879
2005-03-22 08:59:27 51°11.261 2°44.666 -999 3.098047 30.818957 3.129042
2005-03-22 08:59:32 51°11.256 2°44.642 -999 3.095099 30.787305 3.19646
2005-03-22 08:59:36 51°11.251 2°44.622 -999 3.095099 30.787305 3.19646
2005-03-22 08:59:43 51°11.243 2°44.586 -999 3.092151 30.75333 3.129042
2005-03-22 08:59:47 51°11.237 2°44.562 -999 3.095415 30.788451 3.162751
2005-03-22 08:59:52 51°11.231 2°44.537 -999 3.092783 30.761053 3.23017
2005-03-22 08:59:57 51°11.226 2°44.514 -999 3.096363 30.801203 3.23017
2005-03-22 09:00:02 51°11.219 2°44.485 -999 3.100258 30.844837 3.162751
2005-03-22 09:00:07 51°11.213 2°44.46 -999 3.100258 30.844837 3.162751
2005-03-22 09:00:12 51°11.207 2°44.434 -999 3.095626 30.791543 3.263879
2005-03-22 09:00:17 51°11.202 2°44.411 -999 3.105417 30.896932 3.19646
2005-03-22 09:00:23 51°11.195 2°44.38 -999 3.093204 30.760256 3.129042
2005-03-22 09:00:27 51°11.189 2°44.357 -999 3.100153 30.836681 3.23017
2005-03-22 09:00:32 51°11.183 2°44.331 -999 3.100153 30.836681 3.23017
2005-03-22 09:00:37 51°11.178 2°44.308 -999 3.069937 30.503002 3.19646
2005-03-22 09:00:43 51°11.17 2°44.277 -999 3.076464 30.573938 3.19646
2005-03-22 09:00:48 51°11.164 2°44.25 -999 3.099942 30.831256 3.19646
2005-03-22 09:00:51 51°11.16 2°44.233 -999 3.100258 30.833953 3.23017
2005-03-22 09:00:57 51°11.154 2°44.204 -999 3.102258 30.852845 3.297589
2005-03-22 09:01:02 51°11.147 2°44.176 -999 3.102258 30.852845 3.297589
2005-03-22 09:01:07 51°11.142 2°44.153 -999 3.111945 30.957846 3.263879
2005-03-22 09:01:13 51°11.134 2°44.122 -999 3.099731 30.821171 3.23017
2005-03-22 09:01:17 51°11.13 2°44.101 -999 3.096889 30.786812 3.23017
2005-03-22 09:01:23 51°11.122 2°44.07 -999 3.110576 30.93577 3.297589
2005-03-22 09:01:27 51°11.118 2°44.049 -999 3.102258 30.841964 3.365007
2005-03-22 09:01:33 51°11.11 2°44.019 -999 3.099626 30.812249 3.263879
2005-03-22 09:01:37 51°11.106 2°43.998 -999 3.099626 30.812249 3.263879
2005-03-22 09:01:42 51°11.099 2°43.972 -999 3.098363 30.797585 3.23017
2005-03-22 09:01:47 51°11.093 2°43.944 -999 3.115419 30.982806 3.331298
2005-03-22 09:01:51 51°11.089 2°43.923 -999 3.108996 30.911389 3.365007
2005-03-22 09:01:57 51°11.083 2°43.891 -999 3.10647 30.88127 3.297589
2005-03-22 09:02:03 51°11.078 2°43.862 -999 3.107312 30.887419 3.398717
2005-03-22 09:02:07 51°11.074 2°43.838 -999 3.107312 30.887419 3.398717
2005-03-22 09:02:13 51°11.069 2°43.809 -999 3.105522 30.863079 3.23017
2005-03-22 09:02:17 51°11.064 2°43.784 -999 3.103943 30.844168 3.297589
2005-03-22 09:02:22 51°11.061 2°43.758 -999 3.108891 30.897001 3.466136
2005-03-22 09:02:27 51°11.056 2°43.731 -999 3.102047 30.821014 3.331298
2005-03-22 09:02:32 51°11.052 2°43.705 -999 3.102047 30.821014 3.331298
2005-03-22 09:02:37 51°11.047 2°43.681 -999 3.113945 30.947883 3.297589
2005-03-22 09:02:43 51°11.042 2°43.649 -999 3.110154 30.902331 3.297589
2005-03-22 09:02:47 51°11.038 2°43.625 -999 3.111102 30.910411 3.365007
2005-03-22 09:02:51 51°11.034 2°43.604 -999 3.115945 30.959743 3.432426
2005-03-22 09:02:57 51°11.029 2°43.575 -999 3.112997 30.921121 3.398717
2005-03-22 09:03:02 51°11.024 2°43.546 -999 3.124473 31.044116 3.331298
2005-03-22 09:03:07 51°11.021 2°43.521 -999 3.124473 31.044116 3.331298
2005-03-22 09:03:13 51°11.015 2°43.49 -999 3.115524 30.940322 3.499845
2005-03-22 09:03:17 51°11.011 2°43.468 -999 3.125315 31.043222 3.432426
2005-03-22 09:03:23 51°11.006 2°43.437 -999 3.119735 30.977239 3.432426
2005-03-22 09:03:27 51°11.003 2°43.415 -999 3.120051 30.9737 3.365007
2005-03-22 09:03:33 51°10.998 2°43.383 -999 3.130053 31.079659 3.365007
2005-03-22 09:03:37 51°10.995 2°43.362 -999 3.130053 31.079659 3.365007
2005-03-22 09:03:42 51°10.992 2°43.335 -999 3.127 31.043779 3.365007
2005-03-22 09:03:47 51°10.988 2°43.305 -999 3.127842 31.049908 3.432426
2005-03-22 09:03:51 51°10.985 2°43.284 -999 3.135949 31.134265 3.331298
2005-03-22 09:03:57 51°10.981 2°43.251 -999 3.13258 31.094914 3.365007
2005-03-22 09:04:03 51°10.977 2°43.222 -999 3.130053 31.064824 3.331298
2005-03-22 09:04:07 51°10.974 2°43.198 -999 3.130053 31.064824 3.331298
2005-03-22 09:04:13 51°10.971 2°43.168 -999 3.144162 31.21822 3.331298
2005-03-22 09:04:17 51°10.967 2°43.144 -999 3.13437 31.107538 3.297589
2005-03-22 09:04:21 51°10.964 2°43.122 -999 3.126894 31.021573 3.365007
2005-03-22 09:04:27 51°10.961 2°43.093 -999 3.125947 31.008837 3.331298
2005-03-22 09:04:32 51°10.957 2°43.063 -999 3.147215 31.240783 3.331298
2005-03-22 09:04:37 51°10.953 2°43.036 -999 3.147215 31.240783 3.331298
2005-03-22 09:04:43 51°10.949 2°43.007 -999 3.143004 31.191392 3.263879
2005-03-22 09:04:47 51°10.946 2°42.983 -999 3.143741 31.199486 3.297589
2005-03-22 09:04:52 51°10.943 2°42.958 -999 3.126894 31.012227 3.263879
2005-03-22 09:04:57 51°10.939 2°42.928 -999 3.14153 31.17051 3.331298
2005-03-22 09:05:02 51°10.935 2°42.902 -999 3.128158 31.021417 3.365007
2005-03-22 09:05:07 51°10.932 2°42.875 -999 3.128158 31.021417 3.365007
2005-03-22 09:05:13 51°10.928 2°42.845 -999 3.145004 31.203176 3.23017
2005-03-22 09:05:17 51°10.925 2°42.824 -999 3.144372 31.193892 3.331298
2005-03-22 09:05:23 51°10.921 2°42.791 -999 3.140055 31.144164 3.263879
2005-03-22 09:05:27 51°10.918 2°42.77 -999 3.123841 30.96396 3.297589
2005-03-22 09:05:32 51°10.913 2°42.741 -999 3.149321 31.243517 3.331298
2005-03-22 09:05:37 51°10.908 2°42.714 -999 3.149321 31.243517 3.331298
2005-03-22 09:05:42 51°10.903 2°42.689 -999 3.15069 31.25776 3.331298
2005-03-22 09:05:47 51°10.898 2°42.662 -999 3.158376 31.339802 3.297589
2005-03-22 09:05:52 51°10.892 2°42.636 -999 3.147847 31.22185 3.23017
2005-03-22 09:05:57 51°10.887 2°42.613 -999 3.141529 31.15096 3.331298
2005-03-22 09:06:03 51°10.881 2°42.582 -999 3.141529 31.15096 3.331298
2005-03-22 09:06:07 51°10.876 2°42.561 -999 3.151216 31.254129 3.263879
2005-03-22 09:06:12 51°10.87 2°42.533 -999 3.12921 31.011174 3.331298
2005-03-22 09:06:17 51°10.865 2°42.51 -999 3.150058 31.23985 3.297589
2005-03-22 09:06:23 51°10.858 2°42.479 -999 3.163009 31.378088 3.263879
2005-03-22 09:06:27 51°10.853 2°42.455 -999 3.137107 31.093087 3.297589
2005-03-22 09:06:32 51°10.848 2°42.429 -999 3.164062 31.385713 3.263879
2005-03-22 09:06:37 51°10.842 2°42.406 -999 3.164062 31.385713 3.263879
2005-03-22 09:06:42 51°10.836 2°42.378 -999 3.166484 31.408365 3.297589
2005-03-22 09:06:47 51°10.832 2°42.354 -999 3.168484 31.425602 3.162751
2005-03-22 09:06:52 51°10.825 2°42.326 -999 3.159218 31.319976 3.23017
2005-03-22 09:06:57 51°10.82 2°42.303 -999 3.172907 31.466268 3.23017
2005-03-22 09:07:03 51°10.813 2°42.272 -999 3.164694 31.372195 3.23017
2005-03-22 09:07:07 51°10.807 2°42.249 -999 3.164694 31.372195 3.23017
2005-03-22 09:07:12 51°10.801 2°42.224 -999 3.172696 31.455284 3.331298
2005-03-22 09:07:17 51°10.795 2°42.201 -999 3.165852 31.378612 3.297589
2005-03-22 09:07:22 51°10.789 2°42.173 -999 3.178172 31.513013 3.297589
2005-03-22 09:07:27 51°10.783 2°42.147 -999 3.179119 31.522625 3.263879
2005-03-22 09:07:32 51°10.777 2°42.124 -999 3.169011 31.410121 3.263879
2005-03-22 09:07:37 51°10.771 2°42.099 -999 3.169011 31.410121 3.263879
2005-03-22 09:07:42 51°10.765 2°42.07 -999 3.151742 31.219186 3.331298
2005-03-22 09:07:47 51°10.759 2°42.045 -999 3.176697 31.490521 3.331298
2005-03-22 09:07:53 51°10.752 2°42.016 -999 3.179646 31.520507 3.23017
2005-03-22 09:07:57 51°10.747 2°41.996 -999 3.173644 31.450712 3.23017
2005-03-22 09:08:02 51°10.741 2°41.97 -999 3.173644 31.450712 3.23017
2005-03-22 09:08:07 51°10.734 2°41.945 -999 3.17059 31.413284 3.23017
2005-03-22 09:08:11 51°10.728 2°41.923 -999 3.173117 31.439425 3.19646
2005-03-22 09:08:17 51°10.719 2°41.896 -999 3.176592 31.473598 3.129042
2005-03-22 09:08:22 51°10.711 2°41.869 -999 3.176802 31.472756 3.129042
2005-03-22 09:08:27 51°10.703 2°41.845 -999 3.184173 31.548866 3.129042
2005-03-22 09:08:33 51°10.695 2°41.819 -999 3.178592 31.483718 3.095332
2005-03-22 09:08:37 51°10.687 2°41.797 -999 3.178592 31.483718 3.095332
2005-03-22 09:08:42 51°10.679 2°41.774 -999 3.179224 31.486706 3.061623
2005-03-22 09:08:47 51°10.671 2°41.75 -999 3.177855 31.466974 2.994204
2005-03-22 09:08:52 51°10.662 2°41.727 -999 3.184278 31.535024 3.095332
2005-03-22 09:08:57 51°10.654 2°41.703 -999 3.182172 31.507995 3.061623
2005-03-22 09:09:02 51°10.646 2°41.68 -999 3.187016 31.556359 3.027913
2005-03-22 09:09:07 51°10.637 2°41.656 -999 3.187016 31.556359 3.027913
2005-03-22 09:09:12 51°10.63 2°41.635 -999 3.179435 31.46933 3.027913
2005-03-22 09:09:17 51°10.621 2°41.608 -999 3.186279 31.539603 3.027913
2005-03-22 09:09:22 51°10.613 2°41.585 -999 3.188701 31.562988 2.960494
2005-03-22 09:09:27 51°10.605 2°41.561 -999 3.196914 31.649059 3.061623
2005-03-22 09:09:33 51°10.596 2°41.535 -999 3.196914 31.649059 3.061623
2005-03-22 09:09:37 51°10.589 2°41.516 -999 3.192281 31.593538 3.061623
2005-03-22 09:09:42 51°10.58 2°41.49 -999 3.181119 31.466546 3.027913
2005-03-22 09:09:48 51°10.571 2°41.463 -999 3.199757 31.665979 3.027913
2005-03-22 09:09:52 51°10.565 2°41.444 -999 3.193439 31.593598 2.994204
2005-03-22 09:09:56 51°10.559 2°41.425 -999 3.180382 31.44826 2.994204
2005-03-22 09:10:03 51°10.549 2°41.391 -999 3.195124 31.605737 2.960494
2005-03-22 09:10:07 51°10.543 2°41.368 -999 3.195124 31.605737 2.960494
2005-03-22 09:10:12 51°10.537 2°41.346 -999 3.192175 31.570293 3.095332
2005-03-22 09:10:18 51°10.529 2°41.316 -999 3.203337 31.689381 3.027913
2005-03-22 09:10:22 51°10.523 2°41.293 -999 3.201652 31.666971 3.027913
2005-03-22 09:10:27 51°10.517 2°41.268 -999 3.210814 31.762571 3.027913
2005-03-22 09:10:32 51°10.511 2°41.245 -999 3.21292 31.783265 3.061623
2005-03-22 09:10:36 51°10.507 2°41.225 -999 3.21292 31.783265 3.061623
2005-03-22 09:10:41 51°10.5 2°41.197 -999 3.204074 31.682424 3.23017
2005-03-22 09:10:47 51°10.493 2°41.167 -999 3.204496 31.683873 3.027913
2005-03-22 09:10:52 51°10.487 2°41.144 -999 3.217658 31.824064 3.129042
2005-03-22 09:10:57 51°10.481 2°41.116 -999 3.203021 31.660622 3.095332
2005-03-22 09:11:03 51°10.474 2°41.089 -999 3.209339 31.72583 3.19646
2005-03-22 09:11:07 51°10.469 2°41.066 -999 3.209339 31.72583 3.19646
2005-03-22 09:11:13 51°10.463 2°41.038 -999 3.203548 31.658487 3.19646
2005-03-22 09:11:17 51°10.458 2°41.017 -999 3.21492 31.779008 3.19646
2005-03-22 09:11:23 51°10.452 2°40.987 -999 3.223871 31.874633 3.23017
2005-03-22 09:11:27 51°10.446 2°40.964 -999 3.21134 31.735067 3.23017
2005-03-22 09:11:33 51°10.44 2°40.936 -999 3.21134 31.735067 3.23017
2005-03-22 09:11:38 51°10.434 2°40.911 -999 3.230295 31.941008 3.331298
2005-03-22 09:11:42 51°10.429 2°40.888 -999 3.220291 31.829077 3.297589
2005-03-22 09:11:47 51°10.424 2°40.865 -999 3.226925 31.900919 3.297589
2005-03-22 09:11:53 51°10.416 2°40.835 -999 3.225556 31.884339 3.297589
2005-03-22 09:11:57 51°10.412 2°40.814 -999 3.23556 31.9939 3.365007
2005-03-22 09:12:02 51°10.406 2°40.787 -999 3.231243 31.94422 3.365007
2005-03-22 09:12:07 51°10.401 2°40.763 -999 3.231243 31.94422 3.365007
2005-03-22 09:12:12 51°10.394 2°40.738 -999 3.224608 31.869195 3.499845
2005-03-22 09:12:17 51°10.389 2°40.713 -999 3.231875 31.947157 3.365007
2005-03-22 09:12:22 51°10.382 2°40.685 -999 3.237245 32.005176 3.466136
2005-03-22 09:12:27 51°10.376 2°40.66 -999 3.228399 31.907517 3.466136
2005-03-22 09:12:32 51°10.37 2°40.634 -999 3.226925 31.890583 3.533554
2005-03-22 09:12:37 51°10.365 2°40.611 -999 3.226925 31.890583 3.533554
2005-03-22 09:12:42 51°10.359 2°40.584 -999 3.229242 31.914354 3.567264
2005-03-22 09:12:47 51°10.353 2°40.558 -999 3.224082 31.854697 3.567264
2005-03-22 09:12:52 51°10.347 2°40.533 -999 3.233243 31.955776 3.499845
2005-03-22 09:12:57 51°10.341 2°40.507 -999 3.239773 32.026473 3.567264
2005-03-22 09:13:02 51°10.335 2°40.483 -999 3.239773 32.026473 3.567264
2005-03-22 09:13:07 51°10.329 2°40.457 -999 3.23198 31.940349 3.533554
2005-03-22 09:13:12 51°10.323 2°40.432 -999 3.232717 31.949215 3.600973
2005-03-22 09:13:17 51°10.317 2°40.406 -999 3.233665 31.959591 3.533554
2005-03-22 09:13:20 51°10.314 2°40.391 -999 3.236929 31.992944 3.668392
2005-03-22 09:13:27 51°10.306 2°40.358 -999 3.236403 31.987179 3.634683
2005-03-22 09:13:32 51°10.3 2°40.332 -999 3.249988 32.134366 3.533554
2005-03-22 09:13:37 51°10.294 2°40.304 -999 3.249988 32.134366 3.533554
2005-03-22 09:13:43 51°10.288 2°40.276 -999 3.218606 31.789234 3.735811
2005-03-22 09:13:47 51°10.283 2°40.253 -999 3.24904 32.122382 3.702101
2005-03-22 09:13:51 51°10.279 2°40.232 -999 3.248619 32.116967 3.634683
2005-03-22 09:13:56 51°10.274 2°40.209 -999 3.250514 32.136931 3.76952
2005-03-22 09:14:03 51°10.268 2°40.173 -999 3.239141 32.011576 3.668392
2005-03-22 09:14:07 51°10.263 2°40.149 -999 3.239141 32.011576 3.668392
2005-03-22 09:14:12 51°10.258 2°40.123 -999 3.243248 32.056546 3.735811
2005-03-22 09:14:17 51°10.254 2°40.1 -999 3.230505 31.916257 3.634683
2005-03-22 09:14:23 51°10.248 2°40.068 -999 3.236718 31.984262 3.634683
2005-03-22 09:14:27 51°10.243 2°40.045 -999 3.240404 32.023816 3.702101
2005-03-22 09:14:31 51°10.24 2°40.024 -999 3.240404 32.023816 3.702101
2005-03-22 09:14:35 51°10.236 2°40.003 -999 3.241668 32.037652 3.702101
2005-03-22 09:14:43 51°10.229 2°39.964 -999 3.241984 32.04191 3.76952
2005-03-22 09:14:47 51°10.224 2°39.941 -999 3.250725 32.136837 3.735811
2005-03-22 09:14:51 51°10.221 2°39.92 -999 3.244406 32.067634 3.735811
2005-03-22 09:14:57 51°10.215 2°39.888 -999 3.240931 32.031177 3.80323
2005-03-22 09:15:02 51°10.209 2°39.863 -999 3.240931 32.031177 3.80323
2005-03-22 09:15:07 51°10.204 2°39.837 -999 3.232401 31.937798 3.80323
2005-03-22 09:15:12 51°10.199 2°39.812 -999 3.227557 31.884784 3.76952
2005-03-22 09:15:17 51°10.195 2°39.788 -999 3.242932 32.051489 3.76952
2005-03-22 09:15:22 51°10.19 2°39.759 -999 3.25578 32.193818 3.80323
2005-03-22 09:15:27 51°10.185 2°39.733 -999 3.246091 32.086885 3.80323
2005-03-22 09:15:33 51°10.18 2°39.705 -999 3.252304 32.156544 3.76952
2005-03-22 09:15:37 51°10.176 2°39.684 -999 3.252304 32.156544 3.76952
2005-03-22 09:15:42 51°10.171 2°39.656 -999 3.246302 32.09159 3.80323
2005-03-22 09:15:47 51°10.166 2°39.63 -999 3.24746 32.103478 3.870648
2005-03-22 09:15:52 51°10.162 2°39.606 -999 3.247144 32.100018 3.904358
2005-03-22 09:15:56 51°10.158 2°39.586 -999 3.230189 31.913594 3.870648
2005-03-22 09:16:03 51°10.151 2°39.55 -999 3.223134 31.835599 3.80323
2005-03-22 09:16:07 51°10.147 2°39.526 -999 3.223134 31.835599 3.80323
2005-03-22 09:16:12 51°10.143 2°39.502 -999 3.235034 31.966614 3.836939
2005-03-22 09:16:18 51°10.137 2°39.471 -999 3.26273 32.26838 3.836939
2005-03-22 09:16:23 51°10.132 2°39.446 -999 3.252199 32.152987 3.870648
2005-03-22 09:16:27 51°10.127 2°39.422 -999 3.264837 32.290662 3.904358
2005-03-22 09:16:33 51°10.122 2°39.394 -999 3.264731 32.289507 3.904358
2005-03-22 09:16:37 51°10.118 2°39.373 -999 3.264731 32.289507 3.904358
2005-03-22 09:16:43 51°10.112 2°39.342 -999 3.25578 32.19061 3.836939
2005-03-22 09:16:48 51°10.107 2°39.316 -999 3.256306 32.196379 3.836939
2005-03-22 09:16:52 51°10.103 2°39.295 -999 3.262098 32.25583 3.938067
2005-03-22 09:16:56 51°10.099 2°39.275 -999 3.264099 32.276952 3.870648
2005-03-22 09:17:03 51°10.092 2°39.239 -999 3.25757 32.205411 3.870648
2005-03-22 09:17:07 51°10.087 2°39.215 -999 3.25757 32.205411 3.870648
2005-03-22 09:17:12 51°10.083 2°39.192 -999 3.258728 32.216497 4.005486
2005-03-22 09:17:17 51°10.077 2°39.166 -999 3.263151 32.264959 3.870648
2005-03-22 09:17:22 51°10.072 2°39.138 -999 3.253568 32.159172 3.904358
2005-03-22 09:17:27 51°10.067 2°39.112 -999 3.255569 32.181087 3.971777
2005-03-22 09:17:32 51°10.062 2°39.086 -999 3.259992 32.228737 3.938067
2005-03-22 09:17:37 51°10.057 2°39.06 -999 3.259992 32.228737 3.938067
2005-03-22 09:17:42 51°10.052 2°39.034 -999 3.257886 32.206466 4.005486
2005-03-22 09:17:47 51°10.047 2°39.008 -999 3.2661 32.295663 4.005486
2005-03-22 09:17:53 51°10.042 2°38.98 -999 3.261256 32.242582 4.140324
2005-03-22 09:17:56 51°10.039 2°38.962 -999 3.266627 32.302238 4.005486
2005-03-22 09:18:02 51°10.033 2°38.931 -999 3.261888 32.249505 3.971777
2005-03-22 09:18:07 51°10.028 2°38.907 -999 3.261888 32.249505 3.971777
2005-03-22 09:18:12 51°10.023 2°38.879 -999 3.2661 32.294054 4.072905
2005-03-22 09:18:17 51°10.018 2°38.856 -999 3.268417 32.320249 4.072905
2005-03-22 09:18:21 51°10.015 2°38.835 -999 3.266311 32.297971 4.106614
2005-03-22 09:18:28 51°10.008 2°38.798 -999 3.254095 32.164939 4.140324
2005-03-22 09:18:32 51°10.004 2°38.777 -999 3.256938 32.197687 4.241452
2005-03-22 09:18:37 51°9.999 2°38.751 -999 3.256938 32.197687 4.241452
2005-03-22 09:18:41 51°9.995 2°38.73 -999 3.249145 32.113933 4.140324
2005-03-22 09:18:48 51°9.988 2°38.694 -999 3.26094 32.24153 4.241452
2005-03-22 09:18:53 51°9.983 2°38.669 -999 3.261782 32.252368 4.275161
2005-03-22 09:18:57 51°9.979 2°38.648 -999 3.257254 32.20195 4.241452
2005-03-22 09:19:02 51°9.974 2°38.62 -999 3.264415 32.277199 4.275161
2005-03-22 09:19:07 51°9.969 2°38.594 -999 3.264415 32.277199 4.275161
2005-03-22 09:19:12 51°9.965 2°38.57 -999 3.257149 32.19839 4.275161
2005-03-22 09:19:17 51°9.96 2°38.544 -999 3.25936 32.222617 4.376289
2005-03-22 09:19:21 51°9.955 2°38.521 -999 3.265047 32.282514 4.207742
2005-03-22 09:19:28 51°9.949 2°38.487 -999 3.254726 32.167853 4.241452
2005-03-22 09:19:32 51°9.945 2°38.465 -999 3.259781 32.220812 4.241452
2005-03-22 09:19:37 51°9.94 2°38.438 -999 3.259781 32.220812 4.241452
2005-03-22 09:19:42 51°9.935 2°38.413 -999 3.264836 32.275384 4.275161
2005-03-22 09:19:47 51°9.931 2°38.386 -999 3.255148 32.169262 4.207742
2005-03-22 09:19:53 51°9.925 2°38.358 -999 3.261572 32.23962 4.308871
2005-03-22 09:19:57 51°9.921 2°38.334 -999 3.255253 32.168012 4.275161
2005-03-22 09:20:02 51°9.916 2°38.308 -999 3.255253 32.168012 4.275161
2005-03-22 09:20:07 51°9.912 2°38.283 -999 3.258202 32.198699 4.207742
2005-03-22 09:20:13 51°9.906 2°38.254 -999 3.273577 32.363913 4.241452
2005-03-22 09:20:17 51°9.903 2°38.233 -999 3.268522 32.306115 4.34258
2005-03-22 09:20:21 51°9.898 2°38.21 -999 3.270839 32.332301 4.308871
2005-03-22 09:20:27 51°9.893 2°38.179 -999 3.269681 32.316392 4.308871
2005-03-22 09:20:32 51°9.888 2°38.154 -999 3.261361 32.22287 4.308871
2005-03-22 09:20:37 51°9.884 2°38.13 -999 3.261361 32.22287 4.308871
2005-03-22 09:20:41 51°9.879 2°38.106 -999 3.262098 32.230139 4.241452
2005-03-22 09:20:47 51°9.874 2°38.078 -999 3.261782 32.225076 4.34258
2005-03-22 09:20:52 51°9.869 2°38.05 -999 3.267258 32.282629 4.376289
2005-03-22 09:20:57 51°9.865 2°38.027 -999 3.250092 32.091541 4.275161
2005-03-22 09:21:02 51°9.859 2°37.999 -999 3.203968 31.585113 4.308871
2005-03-22 09:21:07 51°9.855 2°37.973 -999 3.203968 31.585113 4.308871
2005-03-22 09:21:12 51°9.85 2°37.947 -999 3.267995 32.284274 4.308871
2005-03-22 09:21:17 51°9.846 2°37.924 -999 3.267258 32.276203 4.308871
2005-03-22 09:21:23 51°9.84 2°37.893 -999 3.258833 32.183184 4.409999
2005-03-22 09:21:27 51°9.836 2°37.87 -999 3.278632 32.39834 4.376289
2005-03-22 09:21:33 51°9.831 2°37.842 -999 3.271576 32.318656 4.443708
2005-03-22 09:21:37 51°9.826 2°37.818 -999 3.271576 32.318656 4.443708
2005-03-22 09:21:43 51°9.821 2°37.791 -999 3.268838 32.286269 4.511127
2005-03-22 09:21:47 51°9.817 2°37.767 -999 3.26789 32.273486 4.376289
2005-03-22 09:21:52 51°9.812 2°37.742 -999 3.27284 32.325255 4.409999
2005-03-22 09:21:57 51°9.807 2°37.716 -999 3.278421 32.385559 4.443708
2005-03-22 09:22:02 51°9.803 2°37.693 -999 3.263256 32.216365 4.477418
2005-03-22 09:22:07 51°9.798 2°37.667 -999 3.263256 32.216365 4.477418
2005-03-22 09:22:13 51°9.793 2°37.636 -999 3.273366 32.326196 4.409999
2005-03-22 09:22:17 51°9.789 2°37.612 -999 3.250408 32.074249 4.409999
2005-03-22 09:22:22 51°9.784 2°37.586 -999 3.270523 32.294272 4.477418
2005-03-22 09:22:27 51°9.78 2°37.56 -999 3.271471 32.305448 4.511127
2005-03-22 09:22:32 51°9.776 2°37.537 -999 3.281792 32.419237 4.578546
2005-03-22 09:22:38 51°9.77 2°37.506 -999 3.281792 32.419237 4.578546
2005-03-22 09:22:42 51°9.766 2°37.483 -999 3.265784 32.245622 4.645965
2005-03-22 09:22:47 51°9.762 2°37.458 -999 3.271049 32.302444 4.612255
2005-03-22 09:22:52 51°9.757 2°37.431 -999 3.271787 32.309709 4.679674
2005-03-22 09:22:57 51°9.752 2°37.405 -999 3.278843 32.386144 4.747093
2005-03-22 09:23:02 51°9.748 2°37.38 -999 3.282213 32.420625 4.780802
2005-03-22 09:23:07 51°9.743 2°37.354 -999 3.282213 32.420625 4.780802
2005-03-22 09:23:13 51°9.738 2°37.326 -999 3.279791 32.393299 4.679674
2005-03-22 09:23:17 51°9.734 2°37.305 -999 3.271892 32.303633 4.713383
2005-03-22 09:23:22 51°9.729 2°37.277 -999 3.268311 32.262851 4.780802
2005-03-22 09:23:27 51°9.725 2°37.252 -999 3.269996 32.279681 4.747093
2005-03-22 09:23:32 51°9.72 2°37.228 -999 3.269996 32.279681 4.747093
2005-03-22 09:23:37 51°9.716 2°37.203 -999 3.270207 32.279578 4.713383
2005-03-22 09:23:42 51°9.711 2°37.174 -999 3.274103 32.31739 4.814512
2005-03-22 09:23:47 51°9.706 2°37.151 -999 3.282423 32.405205 4.679674
2005-03-22 09:23:53 51°9.701 2°37.12 -999 3.271997 32.289533 4.713383
2005-03-22 09:23:57 51°9.698 2°37.1 -999 3.274946 32.319378 4.713383
2005-03-22 09:24:02 51°9.693 2°37.071 -999 3.274946 32.319378 4.713383
2005-03-22 09:24:07 51°9.688 2°37.045 -999 3.265678 32.215631 4.679674
2005-03-22 09:24:13 51°9.683 2°37.017 -999 3.273682 32.299938 4.612255
2005-03-22 09:24:17 51°9.678 2°36.994 -999 3.27147 32.273349 4.645965
2005-03-22 09:24:22 51°9.674 2°36.969 -999 3.26631 32.215336 4.645965
2005-03-22 09:24:27 51°9.67 2°36.943 -999 3.281686 32.381045 4.645965
2005-03-22 09:24:33 51°9.665 2°36.915 -999 3.254199 32.079812 4.544836
2005-03-22 09:24:37 51°9.661 2°36.892 -999 3.254199 32.079812 4.544836
2005-03-22 09:24:43 51°9.655 2°36.864 -999 3.269996 32.251622 4.578546
2005-03-22 09:24:47 51°9.651 2°36.841 -999 3.275262 32.309187 4.645965
2005-03-22 09:24:52 51°9.647 2°36.816 -999 3.278421 32.342127 4.645965
2005-03-22 09:24:57 51°9.643 2°36.793 -999 3.279579 32.353991 4.578546
2005-03-22 09:25:03 51°9.638 2°36.762 -999 3.274735 32.299419 4.612255
2005-03-22 09:25:07 51°9.633 2°36.739 -999 3.274735 32.299419 4.612255
2005-03-22 09:25:12 51°9.63 2°36.716 -999 3.284424 32.402947 4.612255
2005-03-22 09:25:16 51°9.625 2°36.694 -999 3.27305 32.277794 4.679674
2005-03-22 09:25:22 51°9.62 2°36.663 -999 3.285266 32.410552 4.645965
2005-03-22 09:25:27 51°9.615 2°36.638 -999 3.276104 32.309573 4.645965
2005-03-22 09:25:32 51°9.61 2°36.613 -999 3.276104 32.309573 4.645965
2005-03-22 09:25:37 51°9.606 2°36.59 -999 3.269153 32.231207 4.679674
2005-03-22 09:25:42 51°9.602 2°36.563 -999 3.280633 32.355062 4.645965
2005-03-22 09:25:47 51°9.596 2°36.536 -999 3.255357 32.078923 4.679674
2005-03-22 09:25:53 51°9.591 2°36.508 -999 3.255884 32.084673 4.713383
2005-03-22 09:25:57 51°9.587 2°36.488 -999 3.257569 32.101478 4.713383
2005-03-22 09:26:03 51°9.582 2°36.457 -999 3.276525 32.306959 4.679674
2005-03-22 09:26:07 51°9.578 2°36.434 -999 3.276525 32.306959 4.679674
2005-03-22 09:26:12 51°9.574 2°36.411 -999 3.27484 32.289346 4.679674
2005-03-22 09:26:18 51°9.568 2°36.38 -999 3.279474 32.337582 4.612255
2005-03-22 09:26:22 51°9.564 2°36.358 -999 3.27821 32.322968 4.679674
2005-03-22 09:26:28 51°9.559 2°36.329 -999 3.268942 32.220108 4.645965
2005-03-22 09:26:33 51°9.554 2°36.304 -999 3.272312 32.254521 4.713383
2005-03-22 09:26:37 51°9.551 2°36.284 -999 3.272312 32.254521 4.713383
2005-03-22 09:26:43 51°9.546 2°36.254 -999 3.277999 32.315854 4.713383
2005-03-22 09:26:47 51°9.541 2°36.231 -999 3.280316 32.340369 4.645965
2005-03-22 09:26:53 51°9.537 2°36.203 -999 3.276209 32.297093 4.713383
2005-03-22 09:26:57 51°9.533 2°36.182 -999 3.279263 32.331268 4.780802
2005-03-22 09:27:02 51°9.528 2°36.154 -999 3.279263 32.331268 4.780802
2005-03-22 09:27:07 51°9.524 2°36.129 -999 3.269258 32.224359 4.848221
2005-03-22 09:27:12 51°9.52 2°36.105 -999 3.279369 32.335628 4.747093
2005-03-22 09:27:18 51°9.514 2°36.072 -999 3.262308 32.148444 4.747093
2005-03-22 09:27:22 51°9.51 2°36.052 -999 3.277684 32.316411 4.747093
2005-03-22 09:27:27 51°9.506 2°36.027 -999 3.270627 32.239315 4.747093
2005-03-22 09:27:31 51°9.502 2°36.006 -999 3.287583 32.423815 4.780802
2005-03-22 09:27:38 51°9.496 2°35.973 -999 3.287583 32.423815 4.780802
2005-03-22 09:27:43 51°9.492 2°35.947 -999 3.259254 32.115892 4.780802
2005-03-22 09:27:47 51°9.488 2°35.923 -999 3.27979 32.33943 4.747093
2005-03-22 09:27:52 51°9.484 2°35.9 -999 3.280422 32.343928 4.679674
2005-03-22 09:27:57 51°9.478 2°35.871 -999 3.272839 32.255471 4.848221
2005-03-22 09:28:03 51°9.474 2°35.844 -999 3.281054 32.339598 4.747093
2005-03-22 09:28:07 51°9.47 2°35.822 -999 3.281054 32.339598 4.747093
2005-03-22 09:28:13 51°9.465 2°35.793 -999 3.28653 32.390597 4.747093
2005-03-22 09:28:18 51°9.46 2°35.768 -999 3.282422 32.339313 4.747093
2005-03-22 09:28:22 51°9.456 2°35.745 -999 3.280421 32.313456 4.780802
2005-03-22 09:28:27 51°9.451 2°35.719 -999 3.282317 32.329346 4.814512
2005-03-22 09:28:33 51°9.447 2°35.691 -999 3.283054 32.332586 4.814512
2005-03-22 09:28:37 51°9.443 2°35.671 -999 3.283054 32.332586 4.814512
2005-03-22 09:28:43 51°9.438 2°35.64 -999 3.284739 32.347774 4.848221
2005-03-22 09:28:48 51°9.433 2°35.615 -999 3.283897 32.335372 4.713383
2005-03-22 09:28:53 51°9.428 2°35.59 -999 3.292638 32.428388 4.780802
2005-03-22 09:28:57 51°9.425 2°35.569 -999 3.282843 32.319073 4.814512
2005-03-22 09:29:03 51°9.419 2°35.539 -999 3.291585 32.412874 4.780802
2005-03-22 09:29:08 51°9.414 2°35.513 -999 3.291585 32.412874 4.780802
2005-03-22 09:29:12 51°9.41 2°35.49 -999 3.27842 32.268412 4.747093
2005-03-22 09:29:17 51°9.407 2°35.467 -999 3.279789 32.284948 4.780802
2005-03-22 09:29:22 51°9.401 2°35.439 -999 3.281158 32.302287 4.780802
2005-03-22 09:29:27 51°9.397 2°35.413 -999 3.285582 32.352963 4.780802
2005-03-22 09:29:31 51°9.393 2°35.393 -999 3.285582 32.352963 4.780802
2005-03-22 09:29:37 51°9.388 2°35.366 -999 3.284529 32.345475 4.713383
2005-03-22 09:29:42 51°9.384 2°35.34 -999 3.284845 32.352131 4.780802
2005-03-22 09:29:47 51°9.379 2°35.312 -999 3.286003 32.367185 4.88193
2005-03-22 09:29:51 51°9.375 2°35.292 -999 3.289057 32.402141 4.747093
2005-03-22 09:29:57 51°9.369 2°35.261 -999 3.282317 32.330147 4.747093
2005-03-22 09:30:03 51°9.365 2°35.232 -999 3.294955 32.469777 4.679674
2005-03-22 09:30:07 51°9.361 2°35.209 -999 3.294955 32.469777 4.679674
2005-03-22 09:30:13 51°9.356 2°35.181 -999 3.286109 32.378768 4.780802
2005-03-22 09:30:17 51°9.352 2°35.157 -999 3.28495 32.372536 4.780802
2005-03-22 09:30:23 51°9.347 2°35.13 -999 3.274524 32.26027 4.747093
2005-03-22 09:30:27 51°9.343 2°35.107 -999 3.284424 32.369995 4.747093
2005-03-22 09:30:32 51°9.338 2°35.082 -999 3.286741 32.397719 4.747093
2005-03-22 09:30:37 51°9.333 2°35.055 -999 3.286741 32.397719 4.747093
2005-03-22 09:30:42 51°9.328 2°35.031 -999 3.283265 32.363761 4.713383
2005-03-22 09:30:47 51°9.324 2°35.008 -999 3.284318 32.379285 4.814512
2005-03-22 09:30:53 51°9.319 2°34.978 -999 3.269364 32.219912 4.848221
2005-03-22 09:30:57 51°9.315 2°34.957 -999 3.285793 32.402634 4.88193
2005-03-22 09:31:01 51°9.31 2°34.934 -999 3.284634 32.390774 4.91564
2005-03-22 09:31:07 51°9.306 2°34.906 -999 3.284634 32.390774 4.91564
2005-03-22 09:31:11 51°9.301 2°34.883 -999 3.288531 32.434983 4.91564
2005-03-22 09:31:17 51°9.297 2°34.854 -999 3.287057 32.421277 4.814512
2005-03-22 09:31:22 51°9.292 2°34.826 -999 3.292217 32.481738 4.91564
2005-03-22 09:31:27 51°9.288 2°34.8 -999 3.261255 32.146517 4.949349
2005-03-22 09:31:32 51°9.283 2°34.775 -999 3.279685 32.349519 4.88193
2005-03-22 09:31:37 51°9.279 2°34.752 -999 3.279685 32.349519 4.88193
2005-03-22 09:31:43 51°9.274 2°34.721 -999 3.282002 32.373244 5.050477
2005-03-22 09:31:47 51°9.27 2°34.698 -999 3.280843 32.360578 5.016768
2005-03-22 09:31:52 51°9.265 2°34.672 -999 3.295377 32.518721 4.91564
2005-03-22 09:31:58 51°9.26 2°34.643 -999 3.279685 32.345504 4.91564
2005-03-22 09:32:03 51°9.256 2°34.618 -999 3.282423 32.373831 4.848221
2005-03-22 09:32:07 51°9.252 2°34.595 -999 3.282423 32.373831 4.848221
2005-03-22 09:32:12 51°9.247 2°34.569 -999 3.28653 32.418738 4.88193
2005-03-22 09:32:18 51°9.242 2°34.541 -999 3.293481 32.493949 4.949349
2005-03-22 09:32:23 51°9.238 2°34.515 -999 3.286214 32.415284 4.949349
2005-03-22 09:32:27 51°9.234 2°34.493 -999 3.290954 32.467916 4.949349
2005-03-22 09:32:32 51°9.23 2°34.467 -999 3.286425 32.416782 4.91564
2005-03-22 09:32:37 51°9.225 2°34.441 -999 3.286425 32.416782 4.91564
2005-03-22 09:32:43 51°9.22 2°34.413 -999 3.28495 32.401465 4.848221
2005-03-22 09:32:47 51°9.216 2°34.391 -999 3.285477 32.407223 4.848221
2005-03-22 09:32:53 51°9.211 2°34.363 -999 3.282212 32.372332 4.848221
2005-03-22 09:32:57 51°9.207 2°34.342 -999 3.281791 32.367727 4.814512
2005-03-22 09:33:02 51°9.203 2°34.314 -999 3.281791 32.367727 4.814512
2005-03-22 09:33:08 51°9.198 2°34.285 -999 3.285477 32.407223 4.848221
2005-03-22 09:33:11 51°9.195 2°34.27 -999 3.288847 32.445685 4.747093
2005-03-22 09:33:17 51°9.189 2°34.239 -999 3.28474 32.404793 4.814512
2005-03-22 09:33:22 51°9.185 2°34.212 -999 3.283897 32.401211 4.88193
2005-03-22 09:33:27 51°9.18 2°34.186 -999 3.288637 32.454662 4.679674
2005-03-22 09:33:33 51°9.175 2°34.158 -999 3.282318 32.391174 4.780802
2005-03-22 09:33:37 51°9.171 2°34.138 -999 3.282318 32.391174 4.780802
2005-03-22 09:33:43 51°9.166 2°34.108 -999 3.282002 32.39335 4.747093
2005-03-22 09:33:47 51°9.161 2°34.085 -999 3.286004 32.44278 4.814512
2005-03-22 09:33:52 51°9.156 2°34.059 -999 3.28969 32.489584 4.814512
2005-03-22 09:33:58 51°9.15 2°34.031 -999 3.282107 32.412218 4.848221
2005-03-22 09:34:02 51°9.146 2°34.011 -999 3.282213 32.417401 4.848221
2005-03-22 09:34:07 51°9.141 2°33.986 -999 3.282213 32.417401 4.848221
2005-03-22 09:34:13 51°9.135 2°33.956 -999 3.282423 32.424543 4.848221
2005-03-22 09:34:17 51°9.13 2°33.933 -999 3.28453 32.451643 4.848221
2005-03-22 09:34:23 51°9.124 2°33.906 -999 3.281581 32.421768 4.747093
2005-03-22 09:34:27 51°9.12 2°33.884 -999 3.283898 32.451179 4.848221
2005-03-22 09:34:32 51°9.115 2°33.858 -999 3.279053 32.402148 4.679674
2005-03-22 09:34:37 51°9.11 2°33.831 -999 3.279053 32.402148 4.679674
2005-03-22 09:34:42 51°9.105 2°33.806 -999 3.258307 32.177422 4.949349
2005-03-22 09:34:47 51°9.099 2°33.781 -999 3.284741 32.466061 4.713383
2005-03-22 09:34:52 51°9.095 2°33.759 -999 3.279791 32.413448 4.713383
2005-03-22 09:34:56 51°9.09 2°33.736 -999 3.282529 32.44506 4.713383
2005-03-22 09:35:03 51°9.083 2°33.701 -999 3.282424 32.447136 4.747093
2005-03-22 09:35:07 51°9.079 2°33.681 -999 3.282424 32.447136 4.747093
2005-03-22 09:35:13 51°9.073 2°33.653 -999 3.291797 32.549054 4.780802
2005-03-22 09:35:17 51°9.069 2°33.633 -999 3.269786 32.310308 4.679674
2005-03-22 09:35:22 51°9.063 2°33.605 -999 3.282845 32.453367 4.747093